<?xml version="1.0" encoding="UTF-8" standalone="no" ?>
<gpx xmlns="http://www.topografix.com/GPX/1/1" xmlns:xsi="http://www.w3.org/2001/XMLSchema-instance" xsi:schemaLocation="http://www.topografix.com/GPX/1/1 http://www.topografix.com/GPX/1/1/gpx.xsd" version="1.1" creator="VisuGPX - https://www.visugpx.com">
  <metadata>
    <name>Andresy en boucle</name>
    <desc><![CDATA[Petite boucle au départ de l'hôtel de ville d'Andresy.]]></desc>
  </metadata>
  <trk>
    <name><![CDATA[MA-Rando-2019-02-16-161636]]></name>
    <trkseg>
      <trkpt lat="48.97998" lon="2.05905">
        <ele>60</ele>
        <time>2019-02-16T14:16:20Z</time>
      </trkpt>
      <trkpt lat="48.98004" lon="2.05894">
        <ele>60</ele>
        <time>2019-02-16T14:16:31Z</time>
      </trkpt>
      <trkpt lat="48.9801" lon="2.05882">
        <ele>60</ele>
        <time>2019-02-16T14:16:40Z</time>
      </trkpt>
      <trkpt lat="48.9802" lon="2.05882">
        <ele>60</ele>
        <time>2019-02-16T14:16:51Z</time>
      </trkpt>
      <trkpt lat="48.98027" lon="2.05893">
        <ele>61</ele>
        <time>2019-02-16T14:17:00Z</time>
      </trkpt>
      <trkpt lat="48.98035" lon="2.05899">
        <ele>61</ele>
        <time>2019-02-16T14:17:08Z</time>
      </trkpt>
      <trkpt lat="48.98043" lon="2.05904">
        <ele>61</ele>
        <time>2019-02-16T14:17:19Z</time>
      </trkpt>
      <trkpt lat="48.98048" lon="2.05916">
        <ele>61</ele>
        <time>2019-02-16T14:17:27Z</time>
      </trkpt>
      <trkpt lat="48.98056" lon="2.05923">
        <ele>61</ele>
        <time>2019-02-16T14:17:36Z</time>
      </trkpt>
      <trkpt lat="48.98064" lon="2.05929">
        <ele>62</ele>
        <time>2019-02-16T14:17:44Z</time>
      </trkpt>
      <trkpt lat="48.98073" lon="2.0593">
        <ele>62</ele>
        <time>2019-02-16T14:17:51Z</time>
      </trkpt>
      <trkpt lat="48.98083" lon="2.0593">
        <ele>62</ele>
        <time>2019-02-16T14:17:58Z</time>
      </trkpt>
      <trkpt lat="48.98093" lon="2.05929">
        <ele>62</ele>
        <time>2019-02-16T14:18:06Z</time>
      </trkpt>
      <trkpt lat="48.98102" lon="2.05929">
        <ele>62</ele>
        <time>2019-02-16T14:18:14Z</time>
      </trkpt>
      <trkpt lat="48.98112" lon="2.05928">
        <ele>63</ele>
        <time>2019-02-16T14:18:28Z</time>
      </trkpt>
      <trkpt lat="48.98103" lon="2.05924">
        <ele>64</ele>
        <time>2019-02-16T14:19:06Z</time>
      </trkpt>
      <trkpt lat="48.98095" lon="2.05917">
        <ele>64</ele>
        <time>2019-02-16T14:19:18Z</time>
      </trkpt>
      <trkpt lat="48.98086" lon="2.05911">
        <ele>64</ele>
        <time>2019-02-16T14:19:28Z</time>
      </trkpt>
      <trkpt lat="48.98077" lon="2.05916">
        <ele>64</ele>
        <time>2019-02-16T14:19:35Z</time>
      </trkpt>
      <trkpt lat="48.98068" lon="2.05912">
        <ele>65</ele>
        <time>2019-02-16T14:19:45Z</time>
      </trkpt>
      <trkpt lat="48.9806" lon="2.05908">
        <ele>65</ele>
        <time>2019-02-16T14:19:55Z</time>
      </trkpt>
      <trkpt lat="48.98051" lon="2.05903">
        <ele>65</ele>
        <time>2019-02-16T14:20:05Z</time>
      </trkpt>
      <trkpt lat="48.98042" lon="2.05897">
        <ele>65</ele>
        <time>2019-02-16T14:20:13Z</time>
      </trkpt>
      <trkpt lat="48.98033" lon="2.05894">
        <ele>65</ele>
        <time>2019-02-16T14:20:21Z</time>
      </trkpt>
      <trkpt lat="48.98025" lon="2.05886">
        <ele>65</ele>
        <time>2019-02-16T14:20:29Z</time>
      </trkpt>
      <trkpt lat="48.98019" lon="2.05875">
        <ele>65</ele>
        <time>2019-02-16T14:20:36Z</time>
      </trkpt>
      <trkpt lat="48.98023" lon="2.05862">
        <ele>65</ele>
        <time>2019-02-16T14:20:45Z</time>
      </trkpt>
      <trkpt lat="48.98027" lon="2.05848">
        <ele>65</ele>
        <time>2019-02-16T14:20:54Z</time>
      </trkpt>
      <trkpt lat="48.9802" lon="2.05838">
        <ele>65</ele>
        <time>2019-02-16T14:21:01Z</time>
      </trkpt>
      <trkpt lat="48.98014" lon="2.05826">
        <ele>66</ele>
        <time>2019-02-16T14:21:07Z</time>
      </trkpt>
      <trkpt lat="48.98007" lon="2.05815">
        <ele>66</ele>
        <time>2019-02-16T14:21:17Z</time>
      </trkpt>
      <trkpt lat="48.98005" lon="2.05801">
        <ele>66</ele>
        <time>2019-02-16T14:21:26Z</time>
      </trkpt>
      <trkpt lat="48.9801" lon="2.05788">
        <ele>66</ele>
        <time>2019-02-16T14:21:33Z</time>
      </trkpt>
      <trkpt lat="48.98016" lon="2.05778">
        <ele>67</ele>
        <time>2019-02-16T14:21:42Z</time>
      </trkpt>
      <trkpt lat="48.98022" lon="2.05767">
        <ele>67</ele>
        <time>2019-02-16T14:21:52Z</time>
      </trkpt>
      <trkpt lat="48.9803" lon="2.05757">
        <ele>67</ele>
        <time>2019-02-16T14:22:00Z</time>
      </trkpt>
      <trkpt lat="48.98034" lon="2.05744">
        <ele>68</ele>
        <time>2019-02-16T14:22:07Z</time>
      </trkpt>
      <trkpt lat="48.98039" lon="2.05732">
        <ele>69</ele>
        <time>2019-02-16T14:22:22Z</time>
      </trkpt>
      <trkpt lat="48.98044" lon="2.05718">
        <ele>69</ele>
        <time>2019-02-16T14:22:29Z</time>
      </trkpt>
      <trkpt lat="48.98049" lon="2.05704">
        <ele>70</ele>
        <time>2019-02-16T14:22:37Z</time>
      </trkpt>
      <trkpt lat="48.98049" lon="2.05689">
        <ele>70</ele>
        <time>2019-02-16T14:22:42Z</time>
      </trkpt>
      <trkpt lat="48.98047" lon="2.05675">
        <ele>71</ele>
        <time>2019-02-16T14:22:51Z</time>
      </trkpt>
      <trkpt lat="48.98043" lon="2.05662">
        <ele>72</ele>
        <time>2019-02-16T14:23:03Z</time>
      </trkpt>
      <trkpt lat="48.98036" lon="2.05651">
        <ele>72</ele>
        <time>2019-02-16T14:23:10Z</time>
      </trkpt>
      <trkpt lat="48.98045" lon="2.05653">
        <ele>74</ele>
        <time>2019-02-16T14:23:40Z</time>
      </trkpt>
      <trkpt lat="48.98054" lon="2.05658">
        <ele>74</ele>
        <time>2019-02-16T14:23:48Z</time>
      </trkpt>
      <trkpt lat="48.98063" lon="2.05663">
        <ele>74</ele>
        <time>2019-02-16T14:23:56Z</time>
      </trkpt>
      <trkpt lat="48.98072" lon="2.05668">
        <ele>75</ele>
        <time>2019-02-16T14:24:05Z</time>
      </trkpt>
      <trkpt lat="48.9808" lon="2.05676">
        <ele>75</ele>
        <time>2019-02-16T14:24:14Z</time>
      </trkpt>
      <trkpt lat="48.98088" lon="2.05682">
        <ele>75</ele>
        <time>2019-02-16T14:24:21Z</time>
      </trkpt>
      <trkpt lat="48.98097" lon="2.05689">
        <ele>75</ele>
        <time>2019-02-16T14:24:28Z</time>
      </trkpt>
      <trkpt lat="48.98106" lon="2.05693">
        <ele>76</ele>
        <time>2019-02-16T14:24:35Z</time>
      </trkpt>
      <trkpt lat="48.98114" lon="2.057">
        <ele>76</ele>
        <time>2019-02-16T14:24:44Z</time>
      </trkpt>
      <trkpt lat="48.98122" lon="2.05708">
        <ele>76</ele>
        <time>2019-02-16T14:24:52Z</time>
      </trkpt>
      <trkpt lat="48.98131" lon="2.05716">
        <ele>76</ele>
        <time>2019-02-16T14:25:00Z</time>
      </trkpt>
      <trkpt lat="48.98139" lon="2.05723">
        <ele>76</ele>
        <time>2019-02-16T14:25:06Z</time>
      </trkpt>
      <trkpt lat="48.98148" lon="2.05727">
        <ele>77</ele>
        <time>2019-02-16T14:25:12Z</time>
      </trkpt>
      <trkpt lat="48.98157" lon="2.05735">
        <ele>77</ele>
        <time>2019-02-16T14:25:20Z</time>
      </trkpt>
      <trkpt lat="48.98166" lon="2.0574">
        <ele>77</ele>
        <time>2019-02-16T14:25:28Z</time>
      </trkpt>
      <trkpt lat="48.98175" lon="2.05739">
        <ele>77</ele>
        <time>2019-02-16T14:25:34Z</time>
      </trkpt>
      <trkpt lat="48.98185" lon="2.05742">
        <ele>77</ele>
        <time>2019-02-16T14:25:40Z</time>
      </trkpt>
      <trkpt lat="48.98194" lon="2.05744">
        <ele>77</ele>
        <time>2019-02-16T14:25:47Z</time>
      </trkpt>
      <trkpt lat="48.98204" lon="2.05752">
        <ele>78</ele>
        <time>2019-02-16T14:25:54Z</time>
      </trkpt>
      <trkpt lat="48.9821" lon="2.05762">
        <ele>78</ele>
        <time>2019-02-16T14:26:01Z</time>
      </trkpt>
      <trkpt lat="48.98219" lon="2.05768">
        <ele>78</ele>
        <time>2019-02-16T14:26:09Z</time>
      </trkpt>
      <trkpt lat="48.98229" lon="2.05775">
        <ele>78</ele>
        <time>2019-02-16T14:26:16Z</time>
      </trkpt>
      <trkpt lat="48.98237" lon="2.05783">
        <ele>78</ele>
        <time>2019-02-16T14:26:24Z</time>
      </trkpt>
      <trkpt lat="48.98246" lon="2.05789">
        <ele>79</ele>
        <time>2019-02-16T14:26:33Z</time>
      </trkpt>
      <trkpt lat="48.98256" lon="2.05787">
        <ele>79</ele>
        <time>2019-02-16T14:26:42Z</time>
      </trkpt>
      <trkpt lat="48.98261" lon="2.05775">
        <ele>79</ele>
        <time>2019-02-16T14:26:50Z</time>
      </trkpt>
      <trkpt lat="48.98265" lon="2.0576">
        <ele>80</ele>
        <time>2019-02-16T14:26:59Z</time>
      </trkpt>
      <trkpt lat="48.98268" lon="2.05746">
        <ele>80</ele>
        <time>2019-02-16T14:27:07Z</time>
      </trkpt>
      <trkpt lat="48.98271" lon="2.05733">
        <ele>80</ele>
        <time>2019-02-16T14:27:13Z</time>
      </trkpt>
      <trkpt lat="48.98273" lon="2.05718">
        <ele>81</ele>
        <time>2019-02-16T14:27:22Z</time>
      </trkpt>
      <trkpt lat="48.98264" lon="2.05711">
        <ele>82</ele>
        <time>2019-02-16T14:27:33Z</time>
      </trkpt>
      <trkpt lat="48.98254" lon="2.05707">
        <ele>82</ele>
        <time>2019-02-16T14:27:40Z</time>
      </trkpt>
      <trkpt lat="48.98245" lon="2.05702">
        <ele>83</ele>
        <time>2019-02-16T14:27:50Z</time>
      </trkpt>
      <trkpt lat="48.98238" lon="2.05692">
        <ele>83</ele>
        <time>2019-02-16T14:27:58Z</time>
      </trkpt>
      <trkpt lat="48.9823" lon="2.05686">
        <ele>83</ele>
        <time>2019-02-16T14:28:04Z</time>
      </trkpt>
      <trkpt lat="48.98222" lon="2.05679">
        <ele>84</ele>
        <time>2019-02-16T14:28:11Z</time>
      </trkpt>
      <trkpt lat="48.98212" lon="2.05675">
        <ele>84</ele>
        <time>2019-02-16T14:28:19Z</time>
      </trkpt>
      <trkpt lat="48.98204" lon="2.05668">
        <ele>85</ele>
        <time>2019-02-16T14:28:25Z</time>
      </trkpt>
      <trkpt lat="48.98195" lon="2.05662">
        <ele>85</ele>
        <time>2019-02-16T14:28:32Z</time>
      </trkpt>
      <trkpt lat="48.98186" lon="2.05656">
        <ele>85</ele>
        <time>2019-02-16T14:28:40Z</time>
      </trkpt>
      <trkpt lat="48.98176" lon="2.05652">
        <ele>85</ele>
        <time>2019-02-16T14:28:47Z</time>
      </trkpt>
      <trkpt lat="48.98167" lon="2.05647">
        <ele>86</ele>
        <time>2019-02-16T14:28:55Z</time>
      </trkpt>
      <trkpt lat="48.98158" lon="2.05642">
        <ele>86</ele>
        <time>2019-02-16T14:29:02Z</time>
      </trkpt>
      <trkpt lat="48.98149" lon="2.05637">
        <ele>86</ele>
        <time>2019-02-16T14:29:09Z</time>
      </trkpt>
      <trkpt lat="48.9814" lon="2.05634">
        <ele>86</ele>
        <time>2019-02-16T14:29:17Z</time>
      </trkpt>
      <trkpt lat="48.98131" lon="2.05626">
        <ele>86</ele>
        <time>2019-02-16T14:29:25Z</time>
      </trkpt>
      <trkpt lat="48.98122" lon="2.05621">
        <ele>87</ele>
        <time>2019-02-16T14:29:31Z</time>
      </trkpt>
      <trkpt lat="48.98113" lon="2.05616">
        <ele>87</ele>
        <time>2019-02-16T14:29:37Z</time>
      </trkpt>
      <trkpt lat="48.98103" lon="2.05612">
        <ele>87</ele>
        <time>2019-02-16T14:29:44Z</time>
      </trkpt>
      <trkpt lat="48.98094" lon="2.05608">
        <ele>87</ele>
        <time>2019-02-16T14:29:51Z</time>
      </trkpt>
      <trkpt lat="48.98085" lon="2.05603">
        <ele>87</ele>
        <time>2019-02-16T14:29:58Z</time>
      </trkpt>
      <trkpt lat="48.98077" lon="2.05596">
        <ele>87</ele>
        <time>2019-02-16T14:30:06Z</time>
      </trkpt>
      <trkpt lat="48.9807" lon="2.05586">
        <ele>87</ele>
        <time>2019-02-16T14:30:15Z</time>
      </trkpt>
      <trkpt lat="48.98063" lon="2.05577">
        <ele>88</ele>
        <time>2019-02-16T14:30:23Z</time>
      </trkpt>
      <trkpt lat="48.98055" lon="2.05568">
        <ele>88</ele>
        <time>2019-02-16T14:30:30Z</time>
      </trkpt>
      <trkpt lat="48.98047" lon="2.05559">
        <ele>88</ele>
        <time>2019-02-16T14:30:37Z</time>
      </trkpt>
      <trkpt lat="48.98045" lon="2.05544">
        <ele>88</ele>
        <time>2019-02-16T14:30:49Z</time>
      </trkpt>
      <trkpt lat="48.98048" lon="2.0553">
        <ele>88</ele>
        <time>2019-02-16T14:30:57Z</time>
      </trkpt>
      <trkpt lat="48.9805" lon="2.05516">
        <ele>89</ele>
        <time>2019-02-16T14:31:17Z</time>
      </trkpt>
      <trkpt lat="48.98051" lon="2.05502">
        <ele>89</ele>
        <time>2019-02-16T14:31:20Z</time>
      </trkpt>
      <trkpt lat="48.98054" lon="2.05489">
        <ele>90</ele>
        <time>2019-02-16T14:31:40Z</time>
      </trkpt>
      <trkpt lat="48.98059" lon="2.05476">
        <ele>90</ele>
        <time>2019-02-16T14:31:50Z</time>
      </trkpt>
      <trkpt lat="48.98064" lon="2.05463">
        <ele>90</ele>
        <time>2019-02-16T14:31:55Z</time>
      </trkpt>
      <trkpt lat="48.98069" lon="2.0545">
        <ele>90</ele>
        <time>2019-02-16T14:32:00Z</time>
      </trkpt>
      <trkpt lat="48.98071" lon="2.05436">
        <ele>90</ele>
        <time>2019-02-16T14:32:10Z</time>
      </trkpt>
      <trkpt lat="48.98076" lon="2.05424">
        <ele>91</ele>
        <time>2019-02-16T14:32:19Z</time>
      </trkpt>
      <trkpt lat="48.98079" lon="2.0541">
        <ele>91</ele>
        <time>2019-02-16T14:32:28Z</time>
      </trkpt>
      <trkpt lat="48.98081" lon="2.05397">
        <ele>91</ele>
        <time>2019-02-16T14:32:40Z</time>
      </trkpt>
      <trkpt lat="48.98085" lon="2.05382">
        <ele>91</ele>
        <time>2019-02-16T14:32:50Z</time>
      </trkpt>
      <trkpt lat="48.98094" lon="2.05374">
        <ele>92</ele>
        <time>2019-02-16T14:32:56Z</time>
      </trkpt>
      <trkpt lat="48.98102" lon="2.05366">
        <ele>92</ele>
        <time>2019-02-16T14:33:02Z</time>
      </trkpt>
      <trkpt lat="48.9811" lon="2.0536">
        <ele>92</ele>
        <time>2019-02-16T14:33:11Z</time>
      </trkpt>
      <trkpt lat="48.98116" lon="2.05349">
        <ele>92</ele>
        <time>2019-02-16T14:33:21Z</time>
      </trkpt>
      <trkpt lat="48.98132" lon="2.05337">
        <ele>92</ele>
        <time>2019-02-16T14:33:26Z</time>
      </trkpt>
      <trkpt lat="48.98126" lon="2.05324">
        <ele>93</ele>
        <time>2019-02-16T14:33:41Z</time>
      </trkpt>
      <trkpt lat="48.98131" lon="2.05311">
        <ele>93</ele>
        <time>2019-02-16T14:33:46Z</time>
      </trkpt>
      <trkpt lat="48.98139" lon="2.05299">
        <ele>93</ele>
        <time>2019-02-16T14:33:58Z</time>
      </trkpt>
      <trkpt lat="48.98148" lon="2.05292">
        <ele>93</ele>
        <time>2019-02-16T14:34:04Z</time>
      </trkpt>
      <trkpt lat="48.98157" lon="2.05287">
        <ele>93</ele>
        <time>2019-02-16T14:34:09Z</time>
      </trkpt>
      <trkpt lat="48.98167" lon="2.05282">
        <ele>93</ele>
        <time>2019-02-16T14:34:18Z</time>
      </trkpt>
      <trkpt lat="48.98171" lon="2.05269">
        <ele>94</ele>
        <time>2019-02-16T14:34:26Z</time>
      </trkpt>
      <trkpt lat="48.98174" lon="2.05255">
        <ele>94</ele>
        <time>2019-02-16T14:34:33Z</time>
      </trkpt>
      <trkpt lat="48.98179" lon="2.05243">
        <ele>94</ele>
        <time>2019-02-16T14:34:41Z</time>
      </trkpt>
      <trkpt lat="48.98185" lon="2.05232">
        <ele>94</ele>
        <time>2019-02-16T14:34:48Z</time>
      </trkpt>
      <trkpt lat="48.98189" lon="2.05219">
        <ele>94</ele>
        <time>2019-02-16T14:34:54Z</time>
      </trkpt>
      <trkpt lat="48.98181" lon="2.05198">
        <ele>94</ele>
        <time>2019-02-16T14:34:59Z</time>
      </trkpt>
      <trkpt lat="48.98172" lon="2.05186">
        <ele>94</ele>
        <time>2019-02-16T14:35:01Z</time>
      </trkpt>
      <trkpt lat="48.98169" lon="2.05173">
        <ele>95</ele>
        <time>2019-02-16T14:35:12Z</time>
      </trkpt>
      <trkpt lat="48.98175" lon="2.05163">
        <ele>95</ele>
        <time>2019-02-16T14:35:19Z</time>
      </trkpt>
      <trkpt lat="48.98186" lon="2.05161">
        <ele>95</ele>
        <time>2019-02-16T14:35:26Z</time>
      </trkpt>
      <trkpt lat="48.98195" lon="2.05159">
        <ele>96</ele>
        <time>2019-02-16T14:35:52Z</time>
      </trkpt>
      <trkpt lat="48.98203" lon="2.05166">
        <ele>99</ele>
        <time>2019-02-16T14:36:05Z</time>
      </trkpt>
      <trkpt lat="48.98212" lon="2.05171">
        <ele>100</ele>
        <time>2019-02-16T14:36:13Z</time>
      </trkpt>
      <trkpt lat="48.98221" lon="2.05178">
        <ele>101</ele>
        <time>2019-02-16T14:36:19Z</time>
      </trkpt>
      <trkpt lat="48.98229" lon="2.05185">
        <ele>102</ele>
        <time>2019-02-16T14:36:27Z</time>
      </trkpt>
      <trkpt lat="48.98238" lon="2.05191">
        <ele>103</ele>
        <time>2019-02-16T14:36:35Z</time>
      </trkpt>
      <trkpt lat="48.98247" lon="2.05197">
        <ele>103</ele>
        <time>2019-02-16T14:36:43Z</time>
      </trkpt>
      <trkpt lat="48.98255" lon="2.05201">
        <ele>104</ele>
        <time>2019-02-16T14:36:49Z</time>
      </trkpt>
      <trkpt lat="48.98265" lon="2.05205">
        <ele>104</ele>
        <time>2019-02-16T14:36:55Z</time>
      </trkpt>
      <trkpt lat="48.98275" lon="2.05207">
        <ele>105</ele>
        <time>2019-02-16T14:37:02Z</time>
      </trkpt>
      <trkpt lat="48.98283" lon="2.05215">
        <ele>106</ele>
        <time>2019-02-16T14:37:10Z</time>
      </trkpt>
      <trkpt lat="48.98293" lon="2.05218">
        <ele>106</ele>
        <time>2019-02-16T14:37:19Z</time>
      </trkpt>
      <trkpt lat="48.98302" lon="2.0522">
        <ele>107</ele>
        <time>2019-02-16T14:37:25Z</time>
      </trkpt>
      <trkpt lat="48.9831" lon="2.05225">
        <ele>107</ele>
        <time>2019-02-16T14:37:35Z</time>
      </trkpt>
      <trkpt lat="48.98319" lon="2.0523">
        <ele>108</ele>
        <time>2019-02-16T14:37:41Z</time>
      </trkpt>
      <trkpt lat="48.98327" lon="2.05236">
        <ele>108</ele>
        <time>2019-02-16T14:37:47Z</time>
      </trkpt>
      <trkpt lat="48.98337" lon="2.05241">
        <ele>108</ele>
        <time>2019-02-16T14:37:54Z</time>
      </trkpt>
      <trkpt lat="48.98346" lon="2.05244">
        <ele>109</ele>
        <time>2019-02-16T14:38:01Z</time>
      </trkpt>
      <trkpt lat="48.98354" lon="2.05249">
        <ele>109</ele>
        <time>2019-02-16T14:38:07Z</time>
      </trkpt>
      <trkpt lat="48.98363" lon="2.05254">
        <ele>109</ele>
        <time>2019-02-16T14:38:17Z</time>
      </trkpt>
      <trkpt lat="48.98373" lon="2.05253">
        <ele>110</ele>
        <time>2019-02-16T14:38:21Z</time>
      </trkpt>
      <trkpt lat="48.98383" lon="2.05255">
        <ele>110</ele>
        <time>2019-02-16T14:38:28Z</time>
      </trkpt>
      <trkpt lat="48.98392" lon="2.05257">
        <ele>110</ele>
        <time>2019-02-16T14:38:36Z</time>
      </trkpt>
      <trkpt lat="48.98401" lon="2.05263">
        <ele>110</ele>
        <time>2019-02-16T14:38:44Z</time>
      </trkpt>
      <trkpt lat="48.9841" lon="2.05261">
        <ele>110</ele>
        <time>2019-02-16T14:38:50Z</time>
      </trkpt>
      <trkpt lat="48.9842" lon="2.05262">
        <ele>111</ele>
        <time>2019-02-16T14:38:57Z</time>
      </trkpt>
      <trkpt lat="48.98431" lon="2.05266">
        <ele>111</ele>
        <time>2019-02-16T14:39:05Z</time>
      </trkpt>
      <trkpt lat="48.98439" lon="2.05273">
        <ele>111</ele>
        <time>2019-02-16T14:39:13Z</time>
      </trkpt>
      <trkpt lat="48.98449" lon="2.05274">
        <ele>112</ele>
        <time>2019-02-16T14:39:20Z</time>
      </trkpt>
      <trkpt lat="48.98459" lon="2.05276">
        <ele>112</ele>
        <time>2019-02-16T14:39:27Z</time>
      </trkpt>
      <trkpt lat="48.98468" lon="2.05278">
        <ele>112</ele>
        <time>2019-02-16T14:39:34Z</time>
      </trkpt>
      <trkpt lat="48.98478" lon="2.0528">
        <ele>112</ele>
        <time>2019-02-16T14:39:39Z</time>
      </trkpt>
      <trkpt lat="48.98488" lon="2.05284">
        <ele>113</ele>
        <time>2019-02-16T14:39:49Z</time>
      </trkpt>
      <trkpt lat="48.98497" lon="2.05285">
        <ele>113</ele>
        <time>2019-02-16T14:39:56Z</time>
      </trkpt>
      <trkpt lat="48.98506" lon="2.0529">
        <ele>113</ele>
        <time>2019-02-16T14:40:04Z</time>
      </trkpt>
      <trkpt lat="48.98515" lon="2.05283">
        <ele>113</ele>
        <time>2019-02-16T14:40:12Z</time>
      </trkpt>
      <trkpt lat="48.98522" lon="2.05275">
        <ele>113</ele>
        <time>2019-02-16T14:40:18Z</time>
      </trkpt>
      <trkpt lat="48.98525" lon="2.05261">
        <ele>113</ele>
        <time>2019-02-16T14:40:26Z</time>
      </trkpt>
      <trkpt lat="48.9852" lon="2.05249">
        <ele>114</ele>
        <time>2019-02-16T14:40:38Z</time>
      </trkpt>
      <trkpt lat="48.98515" lon="2.05235">
        <ele>114</ele>
        <time>2019-02-16T14:40:46Z</time>
      </trkpt>
      <trkpt lat="48.98522" lon="2.05224">
        <ele>114</ele>
        <time>2019-02-16T14:40:55Z</time>
      </trkpt>
      <trkpt lat="48.98525" lon="2.05208">
        <ele>114</ele>
        <time>2019-02-16T14:41:00Z</time>
      </trkpt>
      <trkpt lat="48.98528" lon="2.05194">
        <ele>114</ele>
        <time>2019-02-16T14:41:08Z</time>
      </trkpt>
      <trkpt lat="48.98529" lon="2.05179">
        <ele>115</ele>
        <time>2019-02-16T14:41:15Z</time>
      </trkpt>
      <trkpt lat="48.98529" lon="2.05164">
        <ele>115</ele>
        <time>2019-02-16T14:41:22Z</time>
      </trkpt>
      <trkpt lat="48.98528" lon="2.0515">
        <ele>115</ele>
        <time>2019-02-16T14:41:28Z</time>
      </trkpt>
      <trkpt lat="48.98527" lon="2.05135">
        <ele>115</ele>
        <time>2019-02-16T14:41:40Z</time>
      </trkpt>
      <trkpt lat="48.98524" lon="2.05122">
        <ele>115</ele>
        <time>2019-02-16T14:41:47Z</time>
      </trkpt>
      <trkpt lat="48.9852" lon="2.05109">
        <ele>116</ele>
        <time>2019-02-16T14:41:55Z</time>
      </trkpt>
      <trkpt lat="48.98519" lon="2.05093">
        <ele>116</ele>
        <time>2019-02-16T14:42:04Z</time>
      </trkpt>
      <trkpt lat="48.9852" lon="2.05078">
        <ele>116</ele>
        <time>2019-02-16T14:42:11Z</time>
      </trkpt>
      <trkpt lat="48.98519" lon="2.05062">
        <ele>116</ele>
        <time>2019-02-16T14:42:18Z</time>
      </trkpt>
      <trkpt lat="48.98518" lon="2.05047">
        <ele>117</ele>
        <time>2019-02-16T14:42:26Z</time>
      </trkpt>
      <trkpt lat="48.98516" lon="2.05032">
        <ele>117</ele>
        <time>2019-02-16T14:42:35Z</time>
      </trkpt>
      <trkpt lat="48.98513" lon="2.05019">
        <ele>118</ele>
        <time>2019-02-16T14:42:43Z</time>
      </trkpt>
      <trkpt lat="48.9851" lon="2.05005">
        <ele>118</ele>
        <time>2019-02-16T14:42:52Z</time>
      </trkpt>
      <trkpt lat="48.98506" lon="2.0499">
        <ele>119</ele>
        <time>2019-02-16T14:43:01Z</time>
      </trkpt>
      <trkpt lat="48.98506" lon="2.04976">
        <ele>119</ele>
        <time>2019-02-16T14:43:09Z</time>
      </trkpt>
      <trkpt lat="48.98508" lon="2.04962">
        <ele>120</ele>
        <time>2019-02-16T14:43:15Z</time>
      </trkpt>
      <trkpt lat="48.98502" lon="2.0495">
        <ele>120</ele>
        <time>2019-02-16T14:43:24Z</time>
      </trkpt>
      <trkpt lat="48.98502" lon="2.04935">
        <ele>121</ele>
        <time>2019-02-16T14:43:30Z</time>
      </trkpt>
      <trkpt lat="48.98499" lon="2.04921">
        <ele>121</ele>
        <time>2019-02-16T14:43:39Z</time>
      </trkpt>
      <trkpt lat="48.98496" lon="2.04907">
        <ele>122</ele>
        <time>2019-02-16T14:43:48Z</time>
      </trkpt>
      <trkpt lat="48.98493" lon="2.04894">
        <ele>122</ele>
        <time>2019-02-16T14:43:58Z</time>
      </trkpt>
      <trkpt lat="48.98492" lon="2.0488">
        <ele>123</ele>
        <time>2019-02-16T14:44:07Z</time>
      </trkpt>
      <trkpt lat="48.98494" lon="2.04866">
        <ele>123</ele>
        <time>2019-02-16T14:44:13Z</time>
      </trkpt>
      <trkpt lat="48.98498" lon="2.04854">
        <ele>123</ele>
        <time>2019-02-16T14:44:20Z</time>
      </trkpt>
      <trkpt lat="48.98496" lon="2.0484">
        <ele>124</ele>
        <time>2019-02-16T14:44:26Z</time>
      </trkpt>
      <trkpt lat="48.98497" lon="2.04825">
        <ele>124</ele>
        <time>2019-02-16T14:44:32Z</time>
      </trkpt>
      <trkpt lat="48.98491" lon="2.04809">
        <ele>124</ele>
        <time>2019-02-16T14:44:36Z</time>
      </trkpt>
      <trkpt lat="48.98483" lon="2.04802">
        <ele>125</ele>
        <time>2019-02-16T14:44:47Z</time>
      </trkpt>
      <trkpt lat="48.98474" lon="2.04797">
        <ele>126</ele>
        <time>2019-02-16T14:45:01Z</time>
      </trkpt>
      <trkpt lat="48.98466" lon="2.0479">
        <ele>127</ele>
        <time>2019-02-16T14:45:11Z</time>
      </trkpt>
      <trkpt lat="48.98455" lon="2.04786">
        <ele>128</ele>
        <time>2019-02-16T14:45:19Z</time>
      </trkpt>
      <trkpt lat="48.98446" lon="2.0478">
        <ele>128</ele>
        <time>2019-02-16T14:45:26Z</time>
      </trkpt>
      <trkpt lat="48.98436" lon="2.04778">
        <ele>128</ele>
        <time>2019-02-16T14:45:32Z</time>
      </trkpt>
      <trkpt lat="48.98427" lon="2.04771">
        <ele>129</ele>
        <time>2019-02-16T14:45:41Z</time>
      </trkpt>
      <trkpt lat="48.98418" lon="2.04764">
        <ele>129</ele>
        <time>2019-02-16T14:45:49Z</time>
      </trkpt>
      <trkpt lat="48.98409" lon="2.0476">
        <ele>130</ele>
        <time>2019-02-16T14:45:58Z</time>
      </trkpt>
      <trkpt lat="48.984" lon="2.04756">
        <ele>130</ele>
        <time>2019-02-16T14:46:06Z</time>
      </trkpt>
      <trkpt lat="48.9839" lon="2.04753">
        <ele>130</ele>
        <time>2019-02-16T14:46:14Z</time>
      </trkpt>
      <trkpt lat="48.98379" lon="2.0475">
        <ele>131</ele>
        <time>2019-02-16T14:46:22Z</time>
      </trkpt>
      <trkpt lat="48.98369" lon="2.0475">
        <ele>131</ele>
        <time>2019-02-16T14:46:30Z</time>
      </trkpt>
      <trkpt lat="48.9836" lon="2.04754">
        <ele>131</ele>
        <time>2019-02-16T14:46:40Z</time>
      </trkpt>
      <trkpt lat="48.98351" lon="2.04749">
        <ele>131</ele>
        <time>2019-02-16T14:46:48Z</time>
      </trkpt>
      <trkpt lat="48.98348" lon="2.04735">
        <ele>132</ele>
        <time>2019-02-16T14:47:00Z</time>
      </trkpt>
      <trkpt lat="48.98347" lon="2.04721">
        <ele>132</ele>
        <time>2019-02-16T14:47:10Z</time>
      </trkpt>
      <trkpt lat="48.98349" lon="2.04705">
        <ele>133</ele>
        <time>2019-02-16T14:47:17Z</time>
      </trkpt>
      <trkpt lat="48.98348" lon="2.04689">
        <ele>133</ele>
        <time>2019-02-16T14:47:27Z</time>
      </trkpt>
      <trkpt lat="48.98346" lon="2.04676">
        <ele>133</ele>
        <time>2019-02-16T14:47:35Z</time>
      </trkpt>
      <trkpt lat="48.98348" lon="2.04662">
        <ele>134</ele>
        <time>2019-02-16T14:47:42Z</time>
      </trkpt>
      <trkpt lat="48.98351" lon="2.04648">
        <ele>134</ele>
        <time>2019-02-16T14:47:53Z</time>
      </trkpt>
      <trkpt lat="48.98355" lon="2.04636">
        <ele>135</ele>
        <time>2019-02-16T14:47:59Z</time>
      </trkpt>
      <trkpt lat="48.98355" lon="2.0462">
        <ele>135</ele>
        <time>2019-02-16T14:48:06Z</time>
      </trkpt>
      <trkpt lat="48.98353" lon="2.04606">
        <ele>135</ele>
        <time>2019-02-16T14:48:14Z</time>
      </trkpt>
      <trkpt lat="48.98358" lon="2.04593">
        <ele>136</ele>
        <time>2019-02-16T14:48:25Z</time>
      </trkpt>
      <trkpt lat="48.98358" lon="2.04577">
        <ele>137</ele>
        <time>2019-02-16T14:48:34Z</time>
      </trkpt>
      <trkpt lat="48.98364" lon="2.04566">
        <ele>137</ele>
        <time>2019-02-16T14:48:40Z</time>
      </trkpt>
      <trkpt lat="48.98368" lon="2.04552">
        <ele>138</ele>
        <time>2019-02-16T14:48:49Z</time>
      </trkpt>
      <trkpt lat="48.98372" lon="2.04539">
        <ele>139</ele>
        <time>2019-02-16T14:48:55Z</time>
      </trkpt>
      <trkpt lat="48.9838" lon="2.04529">
        <ele>140</ele>
        <time>2019-02-16T14:49:04Z</time>
      </trkpt>
      <trkpt lat="48.98385" lon="2.04516">
        <ele>140</ele>
        <time>2019-02-16T14:49:10Z</time>
      </trkpt>
      <trkpt lat="48.98391" lon="2.04505">
        <ele>142</ele>
        <time>2019-02-16T14:49:16Z</time>
      </trkpt>
      <trkpt lat="48.98395" lon="2.04492">
        <ele>143</ele>
        <time>2019-02-16T14:49:25Z</time>
      </trkpt>
      <trkpt lat="48.984" lon="2.0448">
        <ele>145</ele>
        <time>2019-02-16T14:49:34Z</time>
      </trkpt>
      <trkpt lat="48.98405" lon="2.04467">
        <ele>146</ele>
        <time>2019-02-16T14:49:41Z</time>
      </trkpt>
      <trkpt lat="48.98412" lon="2.04455">
        <ele>148</ele>
        <time>2019-02-16T14:49:49Z</time>
      </trkpt>
      <trkpt lat="48.98417" lon="2.04441">
        <ele>149</ele>
        <time>2019-02-16T14:50:00Z</time>
      </trkpt>
      <trkpt lat="48.98421" lon="2.04427">
        <ele>150</ele>
        <time>2019-02-16T14:50:07Z</time>
      </trkpt>
      <trkpt lat="48.98427" lon="2.04415">
        <ele>151</ele>
        <time>2019-02-16T14:50:12Z</time>
      </trkpt>
      <trkpt lat="48.98434" lon="2.04406">
        <ele>152</ele>
        <time>2019-02-16T14:50:19Z</time>
      </trkpt>
      <trkpt lat="48.98439" lon="2.04394">
        <ele>154</ele>
        <time>2019-02-16T14:50:28Z</time>
      </trkpt>
      <trkpt lat="48.98443" lon="2.0438">
        <ele>155</ele>
        <time>2019-02-16T14:50:36Z</time>
      </trkpt>
      <trkpt lat="48.98446" lon="2.04365">
        <ele>156</ele>
        <time>2019-02-16T14:50:43Z</time>
      </trkpt>
      <trkpt lat="48.98451" lon="2.04354">
        <ele>157</ele>
        <time>2019-02-16T14:50:48Z</time>
      </trkpt>
      <trkpt lat="48.98453" lon="2.04339">
        <ele>159</ele>
        <time>2019-02-16T14:50:57Z</time>
      </trkpt>
      <trkpt lat="48.98452" lon="2.04325">
        <ele>160</ele>
        <time>2019-02-16T14:51:04Z</time>
      </trkpt>
      <trkpt lat="48.98451" lon="2.04309">
        <ele>161</ele>
        <time>2019-02-16T14:51:10Z</time>
      </trkpt>
      <trkpt lat="48.98447" lon="2.04296">
        <ele>162</ele>
        <time>2019-02-16T14:51:19Z</time>
      </trkpt>
      <trkpt lat="48.98447" lon="2.04282">
        <ele>163</ele>
        <time>2019-02-16T14:51:28Z</time>
      </trkpt>
      <trkpt lat="48.98448" lon="2.04266">
        <ele>164</ele>
        <time>2019-02-16T14:51:32Z</time>
      </trkpt>
      <trkpt lat="48.9845" lon="2.04252">
        <ele>166</ele>
        <time>2019-02-16T14:51:41Z</time>
      </trkpt>
      <trkpt lat="48.98449" lon="2.04237">
        <ele>167</ele>
        <time>2019-02-16T14:51:49Z</time>
      </trkpt>
      <trkpt lat="48.98447" lon="2.04223">
        <ele>169</ele>
        <time>2019-02-16T14:51:58Z</time>
      </trkpt>
      <trkpt lat="48.98446" lon="2.04209">
        <ele>170</ele>
        <time>2019-02-16T14:52:07Z</time>
      </trkpt>
      <trkpt lat="48.98444" lon="2.04195">
        <ele>170</ele>
        <time>2019-02-16T14:52:12Z</time>
      </trkpt>
      <trkpt lat="48.98444" lon="2.0418">
        <ele>172</ele>
        <time>2019-02-16T14:52:22Z</time>
      </trkpt>
      <trkpt lat="48.98444" lon="2.04166">
        <ele>172</ele>
        <time>2019-02-16T14:52:29Z</time>
      </trkpt>
      <trkpt lat="48.98443" lon="2.04152">
        <ele>173</ele>
        <time>2019-02-16T14:52:37Z</time>
      </trkpt>
      <trkpt lat="48.98441" lon="2.04137">
        <ele>174</ele>
        <time>2019-02-16T14:52:46Z</time>
      </trkpt>
      <trkpt lat="48.98441" lon="2.04121">
        <ele>174</ele>
        <time>2019-02-16T14:52:53Z</time>
      </trkpt>
      <trkpt lat="48.98443" lon="2.04106">
        <ele>175</ele>
        <time>2019-02-16T14:53:03Z</time>
      </trkpt>
      <trkpt lat="48.98446" lon="2.04092">
        <ele>176</ele>
        <time>2019-02-16T14:53:10Z</time>
      </trkpt>
      <trkpt lat="48.98447" lon="2.04078">
        <ele>177</ele>
        <time>2019-02-16T14:53:17Z</time>
      </trkpt>
      <trkpt lat="48.98448" lon="2.04062">
        <ele>177</ele>
        <time>2019-02-16T14:53:25Z</time>
      </trkpt>
      <trkpt lat="48.98448" lon="2.04048">
        <ele>178</ele>
        <time>2019-02-16T14:53:34Z</time>
      </trkpt>
      <trkpt lat="48.98448" lon="2.04033">
        <ele>178</ele>
        <time>2019-02-16T14:53:40Z</time>
      </trkpt>
      <trkpt lat="48.98446" lon="2.04019">
        <ele>178</ele>
        <time>2019-02-16T14:53:48Z</time>
      </trkpt>
      <trkpt lat="48.98443" lon="2.04003">
        <ele>179</ele>
        <time>2019-02-16T14:53:53Z</time>
      </trkpt>
      <trkpt lat="48.98441" lon="2.03988">
        <ele>179</ele>
        <time>2019-02-16T14:54:01Z</time>
      </trkpt>
      <trkpt lat="48.98438" lon="2.03973">
        <ele>180</ele>
        <time>2019-02-16T14:54:09Z</time>
      </trkpt>
      <trkpt lat="48.9844" lon="2.0396">
        <ele>180</ele>
        <time>2019-02-16T14:54:16Z</time>
      </trkpt>
      <trkpt lat="48.98442" lon="2.03946">
        <ele>180</ele>
        <time>2019-02-16T14:54:20Z</time>
      </trkpt>
      <trkpt lat="48.98447" lon="2.03932">
        <ele>181</ele>
        <time>2019-02-16T14:54:27Z</time>
      </trkpt>
      <trkpt lat="48.98445" lon="2.03918">
        <ele>181</ele>
        <time>2019-02-16T14:54:34Z</time>
      </trkpt>
      <trkpt lat="48.98442" lon="2.03903">
        <ele>182</ele>
        <time>2019-02-16T14:54:42Z</time>
      </trkpt>
      <trkpt lat="48.9844" lon="2.03889">
        <ele>182</ele>
        <time>2019-02-16T14:54:51Z</time>
      </trkpt>
      <trkpt lat="48.98444" lon="2.03875">
        <ele>183</ele>
        <time>2019-02-16T14:54:57Z</time>
      </trkpt>
      <trkpt lat="48.98447" lon="2.03861">
        <ele>183</ele>
        <time>2019-02-16T14:55:04Z</time>
      </trkpt>
      <trkpt lat="48.98451" lon="2.03846">
        <ele>183</ele>
        <time>2019-02-16T14:55:12Z</time>
      </trkpt>
      <trkpt lat="48.98453" lon="2.03832">
        <ele>184</ele>
        <time>2019-02-16T14:55:20Z</time>
      </trkpt>
      <trkpt lat="48.98453" lon="2.03817">
        <ele>184</ele>
        <time>2019-02-16T14:55:27Z</time>
      </trkpt>
      <trkpt lat="48.98453" lon="2.03804">
        <ele>184</ele>
        <time>2019-02-16T14:55:35Z</time>
      </trkpt>
      <trkpt lat="48.98451" lon="2.03787">
        <ele>184</ele>
        <time>2019-02-16T14:55:42Z</time>
      </trkpt>
      <trkpt lat="48.98447" lon="2.03772">
        <ele>184</ele>
        <time>2019-02-16T14:55:48Z</time>
      </trkpt>
      <trkpt lat="48.98443" lon="2.03759">
        <ele>184</ele>
        <time>2019-02-16T14:55:54Z</time>
      </trkpt>
      <trkpt lat="48.98442" lon="2.03744">
        <ele>185</ele>
        <time>2019-02-16T14:56:02Z</time>
      </trkpt>
      <trkpt lat="48.98444" lon="2.03729">
        <ele>185</ele>
        <time>2019-02-16T14:56:11Z</time>
      </trkpt>
      <trkpt lat="48.98443" lon="2.03714">
        <ele>185</ele>
        <time>2019-02-16T14:56:18Z</time>
      </trkpt>
      <trkpt lat="48.98447" lon="2.03702">
        <ele>185</ele>
        <time>2019-02-16T14:56:23Z</time>
      </trkpt>
      <trkpt lat="48.98446" lon="2.03686">
        <ele>185</ele>
        <time>2019-02-16T14:56:30Z</time>
      </trkpt>
      <trkpt lat="48.98445" lon="2.03671">
        <ele>185</ele>
        <time>2019-02-16T14:56:40Z</time>
      </trkpt>
      <trkpt lat="48.98447" lon="2.03657">
        <ele>185</ele>
        <time>2019-02-16T14:56:46Z</time>
      </trkpt>
      <trkpt lat="48.98447" lon="2.03641">
        <ele>185</ele>
        <time>2019-02-16T14:56:52Z</time>
      </trkpt>
      <trkpt lat="48.98443" lon="2.03627">
        <ele>184</ele>
        <time>2019-02-16T14:56:57Z</time>
      </trkpt>
      <trkpt lat="48.98438" lon="2.03613">
        <ele>184</ele>
        <time>2019-02-16T14:57:04Z</time>
      </trkpt>
      <trkpt lat="48.98432" lon="2.03601">
        <ele>184</ele>
        <time>2019-02-16T14:57:10Z</time>
      </trkpt>
      <trkpt lat="48.98429" lon="2.03587">
        <ele>184</ele>
        <time>2019-02-16T14:57:16Z</time>
      </trkpt>
      <trkpt lat="48.98428" lon="2.03573">
        <ele>185</ele>
        <time>2019-02-16T14:57:21Z</time>
      </trkpt>
      <trkpt lat="48.98427" lon="2.03558">
        <ele>185</ele>
        <time>2019-02-16T14:57:28Z</time>
      </trkpt>
      <trkpt lat="48.98428" lon="2.03544">
        <ele>185</ele>
        <time>2019-02-16T14:57:36Z</time>
      </trkpt>
      <trkpt lat="48.98427" lon="2.03529">
        <ele>185</ele>
        <time>2019-02-16T14:57:43Z</time>
      </trkpt>
      <trkpt lat="48.98425" lon="2.03516">
        <ele>185</ele>
        <time>2019-02-16T14:57:50Z</time>
      </trkpt>
      <trkpt lat="48.98422" lon="2.03502">
        <ele>185</ele>
        <time>2019-02-16T14:57:55Z</time>
      </trkpt>
      <trkpt lat="48.9842" lon="2.03486">
        <ele>185</ele>
        <time>2019-02-16T14:58:01Z</time>
      </trkpt>
      <trkpt lat="48.98414" lon="2.03474">
        <ele>186</ele>
        <time>2019-02-16T14:58:11Z</time>
      </trkpt>
      <trkpt lat="48.98412" lon="2.0346">
        <ele>186</ele>
        <time>2019-02-16T14:58:14Z</time>
      </trkpt>
      <trkpt lat="48.98409" lon="2.03446">
        <ele>186</ele>
        <time>2019-02-16T14:58:19Z</time>
      </trkpt>
      <trkpt lat="48.98405" lon="2.03433">
        <ele>187</ele>
        <time>2019-02-16T14:58:30Z</time>
      </trkpt>
      <trkpt lat="48.98403" lon="2.03418">
        <ele>188</ele>
        <time>2019-02-16T14:58:46Z</time>
      </trkpt>
      <trkpt lat="48.98405" lon="2.03403">
        <ele>188</ele>
        <time>2019-02-16T14:58:50Z</time>
      </trkpt>
      <trkpt lat="48.98412" lon="2.03411">
        <ele>192</ele>
        <time>2019-02-16T14:59:22Z</time>
      </trkpt>
      <trkpt lat="48.98423" lon="2.03418">
        <ele>193</ele>
        <time>2019-02-16T14:59:30Z</time>
      </trkpt>
      <trkpt lat="48.98433" lon="2.03419">
        <ele>193</ele>
        <time>2019-02-16T14:59:37Z</time>
      </trkpt>
      <trkpt lat="48.98442" lon="2.0342">
        <ele>194</ele>
        <time>2019-02-16T14:59:44Z</time>
      </trkpt>
      <trkpt lat="48.98451" lon="2.03422">
        <ele>194</ele>
        <time>2019-02-16T14:59:54Z</time>
      </trkpt>
      <trkpt lat="48.9846" lon="2.03425">
        <ele>195</ele>
        <time>2019-02-16T15:00:04Z</time>
      </trkpt>
      <trkpt lat="48.98469" lon="2.03429">
        <ele>195</ele>
        <time>2019-02-16T15:00:20Z</time>
      </trkpt>
      <trkpt lat="48.98479" lon="2.03428">
        <ele>195</ele>
        <time>2019-02-16T15:00:27Z</time>
      </trkpt>
      <trkpt lat="48.9849" lon="2.03429">
        <ele>196</ele>
        <time>2019-02-16T15:00:34Z</time>
      </trkpt>
      <trkpt lat="48.985" lon="2.03432">
        <ele>196</ele>
        <time>2019-02-16T15:00:38Z</time>
      </trkpt>
      <trkpt lat="48.98509" lon="2.03438">
        <ele>196</ele>
        <time>2019-02-16T15:00:43Z</time>
      </trkpt>
      <trkpt lat="48.98519" lon="2.03441">
        <ele>196</ele>
        <time>2019-02-16T15:00:50Z</time>
      </trkpt>
      <trkpt lat="48.98531" lon="2.0344">
        <ele>196</ele>
        <time>2019-02-16T15:00:58Z</time>
      </trkpt>
      <trkpt lat="48.9854" lon="2.03443">
        <ele>196</ele>
        <time>2019-02-16T15:01:09Z</time>
      </trkpt>
      <trkpt lat="48.98549" lon="2.03443">
        <ele>196</ele>
        <time>2019-02-16T15:01:17Z</time>
      </trkpt>
      <trkpt lat="48.9856" lon="2.0344">
        <ele>196</ele>
        <time>2019-02-16T15:01:20Z</time>
      </trkpt>
      <trkpt lat="48.98569" lon="2.03437">
        <ele>196</ele>
        <time>2019-02-16T15:01:25Z</time>
      </trkpt>
      <trkpt lat="48.98578" lon="2.03438">
        <ele>196</ele>
        <time>2019-02-16T15:01:31Z</time>
      </trkpt>
      <trkpt lat="48.98587" lon="2.03435">
        <ele>196</ele>
        <time>2019-02-16T15:01:39Z</time>
      </trkpt>
      <trkpt lat="48.98597" lon="2.03435">
        <ele>196</ele>
        <time>2019-02-16T15:01:57Z</time>
      </trkpt>
      <trkpt lat="48.98607" lon="2.03439">
        <ele>196</ele>
        <time>2019-02-16T15:02:05Z</time>
      </trkpt>
      <trkpt lat="48.98617" lon="2.03441">
        <ele>196</ele>
        <time>2019-02-16T15:02:14Z</time>
      </trkpt>
      <trkpt lat="48.98627" lon="2.03441">
        <ele>197</ele>
        <time>2019-02-16T15:02:21Z</time>
      </trkpt>
      <trkpt lat="48.98636" lon="2.0344">
        <ele>197</ele>
        <time>2019-02-16T15:02:28Z</time>
      </trkpt>
      <trkpt lat="48.98645" lon="2.03441">
        <ele>197</ele>
        <time>2019-02-16T15:02:44Z</time>
      </trkpt>
      <trkpt lat="48.98655" lon="2.03442">
        <ele>197</ele>
        <time>2019-02-16T15:02:48Z</time>
      </trkpt>
      <trkpt lat="48.98664" lon="2.03443">
        <ele>197</ele>
        <time>2019-02-16T15:02:52Z</time>
      </trkpt>
      <trkpt lat="48.98674" lon="2.03441">
        <ele>197</ele>
        <time>2019-02-16T15:02:58Z</time>
      </trkpt>
      <trkpt lat="48.98684" lon="2.03441">
        <ele>197</ele>
        <time>2019-02-16T15:03:05Z</time>
      </trkpt>
      <trkpt lat="48.98693" lon="2.03437">
        <ele>197</ele>
        <time>2019-02-16T15:03:14Z</time>
      </trkpt>
      <trkpt lat="48.98702" lon="2.03433">
        <ele>197</ele>
        <time>2019-02-16T15:03:22Z</time>
      </trkpt>
      <trkpt lat="48.98712" lon="2.03429">
        <ele>196</ele>
        <time>2019-02-16T15:03:35Z</time>
      </trkpt>
      <trkpt lat="48.98721" lon="2.03422">
        <ele>196</ele>
        <time>2019-02-16T15:03:42Z</time>
      </trkpt>
      <trkpt lat="48.9873" lon="2.03414">
        <ele>196</ele>
        <time>2019-02-16T15:03:50Z</time>
      </trkpt>
      <trkpt lat="48.98737" lon="2.03406">
        <ele>196</ele>
        <time>2019-02-16T15:03:55Z</time>
      </trkpt>
      <trkpt lat="48.98746" lon="2.03401">
        <ele>196</ele>
        <time>2019-02-16T15:04:07Z</time>
      </trkpt>
      <trkpt lat="48.98755" lon="2.03407">
        <ele>196</ele>
        <time>2019-02-16T15:04:17Z</time>
      </trkpt>
      <trkpt lat="48.98765" lon="2.03413">
        <ele>195</ele>
        <time>2019-02-16T15:04:24Z</time>
      </trkpt>
      <trkpt lat="48.98774" lon="2.03415">
        <ele>195</ele>
        <time>2019-02-16T15:04:33Z</time>
      </trkpt>
      <trkpt lat="48.98784" lon="2.03416">
        <ele>195</ele>
        <time>2019-02-16T15:04:38Z</time>
      </trkpt>
      <trkpt lat="48.98793" lon="2.03421">
        <ele>195</ele>
        <time>2019-02-16T15:04:47Z</time>
      </trkpt>
      <trkpt lat="48.98801" lon="2.03426">
        <ele>195</ele>
        <time>2019-02-16T15:04:53Z</time>
      </trkpt>
      <trkpt lat="48.9881" lon="2.03432">
        <ele>195</ele>
        <time>2019-02-16T15:04:58Z</time>
      </trkpt>
      <trkpt lat="48.98819" lon="2.03439">
        <ele>195</ele>
        <time>2019-02-16T15:05:07Z</time>
      </trkpt>
      <trkpt lat="48.98829" lon="2.03441">
        <ele>194</ele>
        <time>2019-02-16T15:05:12Z</time>
      </trkpt>
      <trkpt lat="48.98838" lon="2.03444">
        <ele>194</ele>
        <time>2019-02-16T15:05:19Z</time>
      </trkpt>
      <trkpt lat="48.98845" lon="2.03451">
        <ele>194</ele>
        <time>2019-02-16T15:05:30Z</time>
      </trkpt>
      <trkpt lat="48.98855" lon="2.03457">
        <ele>194</ele>
        <time>2019-02-16T15:05:39Z</time>
      </trkpt>
      <trkpt lat="48.98866" lon="2.03457">
        <ele>194</ele>
        <time>2019-02-16T15:05:48Z</time>
      </trkpt>
      <trkpt lat="48.98875" lon="2.03461">
        <ele>193</ele>
        <time>2019-02-16T15:05:58Z</time>
      </trkpt>
      <trkpt lat="48.98884" lon="2.03464">
        <ele>193</ele>
        <time>2019-02-16T15:06:04Z</time>
      </trkpt>
      <trkpt lat="48.98894" lon="2.03465">
        <ele>193</ele>
        <time>2019-02-16T15:06:12Z</time>
      </trkpt>
      <trkpt lat="48.98903" lon="2.03471">
        <ele>193</ele>
        <time>2019-02-16T15:06:18Z</time>
      </trkpt>
      <trkpt lat="48.98913" lon="2.03476">
        <ele>192</ele>
        <time>2019-02-16T15:06:27Z</time>
      </trkpt>
      <trkpt lat="48.98922" lon="2.03481">
        <ele>192</ele>
        <time>2019-02-16T15:06:36Z</time>
      </trkpt>
      <trkpt lat="48.98931" lon="2.03489">
        <ele>192</ele>
        <time>2019-02-16T15:06:42Z</time>
      </trkpt>
      <trkpt lat="48.9894" lon="2.03494">
        <ele>192</ele>
        <time>2019-02-16T15:06:47Z</time>
      </trkpt>
      <trkpt lat="48.98949" lon="2.03499">
        <ele>192</ele>
        <time>2019-02-16T15:06:57Z</time>
      </trkpt>
      <trkpt lat="48.98959" lon="2.03499">
        <ele>192</ele>
        <time>2019-02-16T15:07:05Z</time>
      </trkpt>
      <trkpt lat="48.98969" lon="2.03507">
        <ele>192</ele>
        <time>2019-02-16T15:07:10Z</time>
      </trkpt>
      <trkpt lat="48.98979" lon="2.03511">
        <ele>191</ele>
        <time>2019-02-16T15:07:19Z</time>
      </trkpt>
      <trkpt lat="48.98987" lon="2.03516">
        <ele>191</ele>
        <time>2019-02-16T15:07:30Z</time>
      </trkpt>
      <trkpt lat="48.98997" lon="2.03519">
        <ele>191</ele>
        <time>2019-02-16T15:07:37Z</time>
      </trkpt>
      <trkpt lat="48.99006" lon="2.03524">
        <ele>191</ele>
        <time>2019-02-16T15:07:43Z</time>
      </trkpt>
      <trkpt lat="48.99017" lon="2.0353">
        <ele>191</ele>
        <time>2019-02-16T15:07:53Z</time>
      </trkpt>
      <trkpt lat="48.99025" lon="2.03536">
        <ele>191</ele>
        <time>2019-02-16T15:07:59Z</time>
      </trkpt>
      <trkpt lat="48.99035" lon="2.03538">
        <ele>191</ele>
        <time>2019-02-16T15:08:09Z</time>
      </trkpt>
      <trkpt lat="48.99044" lon="2.03543">
        <ele>190</ele>
        <time>2019-02-16T15:08:25Z</time>
      </trkpt>
      <trkpt lat="48.99052" lon="2.03548">
        <ele>190</ele>
        <time>2019-02-16T15:08:55Z</time>
      </trkpt>
      <trkpt lat="48.99044" lon="2.03553">
        <ele>190</ele>
        <time>2019-02-16T15:10:01Z</time>
      </trkpt>
      <trkpt lat="48.99045" lon="2.03568">
        <ele>187</ele>
        <time>2019-02-16T15:13:14Z</time>
      </trkpt>
      <trkpt lat="48.99042" lon="2.03581">
        <ele>187</ele>
        <time>2019-02-16T15:13:25Z</time>
      </trkpt>
      <trkpt lat="48.99041" lon="2.03595">
        <ele>186</ele>
        <time>2019-02-16T15:13:32Z</time>
      </trkpt>
      <trkpt lat="48.99039" lon="2.03611">
        <ele>185</ele>
        <time>2019-02-16T15:13:40Z</time>
      </trkpt>
      <trkpt lat="48.99038" lon="2.03625">
        <ele>185</ele>
        <time>2019-02-16T15:13:51Z</time>
      </trkpt>
      <trkpt lat="48.99034" lon="2.03638">
        <ele>184</ele>
        <time>2019-02-16T15:13:59Z</time>
      </trkpt>
      <trkpt lat="48.99031" lon="2.03652">
        <ele>183</ele>
        <time>2019-02-16T15:14:06Z</time>
      </trkpt>
      <trkpt lat="48.99026" lon="2.03667">
        <ele>183</ele>
        <time>2019-02-16T15:14:12Z</time>
      </trkpt>
      <trkpt lat="48.99022" lon="2.03679">
        <ele>182</ele>
        <time>2019-02-16T15:14:18Z</time>
      </trkpt>
      <trkpt lat="48.99018" lon="2.03693">
        <ele>181</ele>
        <time>2019-02-16T15:14:28Z</time>
      </trkpt>
      <trkpt lat="48.99015" lon="2.03708">
        <ele>181</ele>
        <time>2019-02-16T15:14:37Z</time>
      </trkpt>
      <trkpt lat="48.99013" lon="2.03723">
        <ele>180</ele>
        <time>2019-02-16T15:14:45Z</time>
      </trkpt>
      <trkpt lat="48.9901" lon="2.03738">
        <ele>179</ele>
        <time>2019-02-16T15:14:53Z</time>
      </trkpt>
      <trkpt lat="48.99009" lon="2.03752">
        <ele>179</ele>
        <time>2019-02-16T15:15:01Z</time>
      </trkpt>
      <trkpt lat="48.99004" lon="2.03765">
        <ele>178</ele>
        <time>2019-02-16T15:15:07Z</time>
      </trkpt>
      <trkpt lat="48.99002" lon="2.03779">
        <ele>178</ele>
        <time>2019-02-16T15:15:14Z</time>
      </trkpt>
      <trkpt lat="48.98999" lon="2.03792">
        <ele>178</ele>
        <time>2019-02-16T15:15:23Z</time>
      </trkpt>
      <trkpt lat="48.98994" lon="2.03805">
        <ele>177</ele>
        <time>2019-02-16T15:15:28Z</time>
      </trkpt>
      <trkpt lat="48.98989" lon="2.03817">
        <ele>177</ele>
        <time>2019-02-16T15:15:34Z</time>
      </trkpt>
      <trkpt lat="48.98984" lon="2.03829">
        <ele>176</ele>
        <time>2019-02-16T15:15:44Z</time>
      </trkpt>
      <trkpt lat="48.98974" lon="2.03829">
        <ele>172</ele>
        <time>2019-02-16T15:16:16Z</time>
      </trkpt>
      <trkpt lat="48.9898" lon="2.03841">
        <ele>171</ele>
        <time>2019-02-16T15:16:34Z</time>
      </trkpt>
      <trkpt lat="48.98989" lon="2.03842">
        <ele>169</ele>
        <time>2019-02-16T15:17:15Z</time>
      </trkpt>
      <trkpt lat="48.98998" lon="2.03845">
        <ele>168</ele>
        <time>2019-02-16T15:17:22Z</time>
      </trkpt>
      <trkpt lat="48.99007" lon="2.03852">
        <ele>166</ele>
        <time>2019-02-16T15:17:30Z</time>
      </trkpt>
      <trkpt lat="48.99016" lon="2.03858">
        <ele>166</ele>
        <time>2019-02-16T15:17:38Z</time>
      </trkpt>
      <trkpt lat="48.99025" lon="2.03861">
        <ele>165</ele>
        <time>2019-02-16T15:17:45Z</time>
      </trkpt>
      <trkpt lat="48.99035" lon="2.03866">
        <ele>164</ele>
        <time>2019-02-16T15:17:53Z</time>
      </trkpt>
      <trkpt lat="48.99044" lon="2.03871">
        <ele>164</ele>
        <time>2019-02-16T15:17:59Z</time>
      </trkpt>
      <trkpt lat="48.99052" lon="2.03877">
        <ele>163</ele>
        <time>2019-02-16T15:18:07Z</time>
      </trkpt>
      <trkpt lat="48.99062" lon="2.0388">
        <ele>163</ele>
        <time>2019-02-16T15:18:15Z</time>
      </trkpt>
      <trkpt lat="48.99072" lon="2.03887">
        <ele>162</ele>
        <time>2019-02-16T15:18:24Z</time>
      </trkpt>
      <trkpt lat="48.99081" lon="2.03892">
        <ele>162</ele>
        <time>2019-02-16T15:18:32Z</time>
      </trkpt>
      <trkpt lat="48.9909" lon="2.03898">
        <ele>161</ele>
        <time>2019-02-16T15:18:40Z</time>
      </trkpt>
      <trkpt lat="48.991" lon="2.03903">
        <ele>160</ele>
        <time>2019-02-16T15:18:48Z</time>
      </trkpt>
      <trkpt lat="48.99109" lon="2.03909">
        <ele>160</ele>
        <time>2019-02-16T15:18:55Z</time>
      </trkpt>
      <trkpt lat="48.99118" lon="2.03916">
        <ele>159</ele>
        <time>2019-02-16T15:19:04Z</time>
      </trkpt>
      <trkpt lat="48.99127" lon="2.03921">
        <ele>159</ele>
        <time>2019-02-16T15:19:12Z</time>
      </trkpt>
      <trkpt lat="48.99137" lon="2.03925">
        <ele>158</ele>
        <time>2019-02-16T15:19:20Z</time>
      </trkpt>
      <trkpt lat="48.99146" lon="2.03931">
        <ele>157</ele>
        <time>2019-02-16T15:19:28Z</time>
      </trkpt>
      <trkpt lat="48.99156" lon="2.03935">
        <ele>157</ele>
        <time>2019-02-16T15:19:35Z</time>
      </trkpt>
      <trkpt lat="48.99165" lon="2.03938">
        <ele>156</ele>
        <time>2019-02-16T15:19:42Z</time>
      </trkpt>
      <trkpt lat="48.99175" lon="2.03942">
        <ele>156</ele>
        <time>2019-02-16T15:19:48Z</time>
      </trkpt>
      <trkpt lat="48.99184" lon="2.03948">
        <ele>155</ele>
        <time>2019-02-16T15:19:56Z</time>
      </trkpt>
      <trkpt lat="48.99193" lon="2.03953">
        <ele>154</ele>
        <time>2019-02-16T15:20:03Z</time>
      </trkpt>
      <trkpt lat="48.99202" lon="2.03957">
        <ele>154</ele>
        <time>2019-02-16T15:20:09Z</time>
      </trkpt>
      <trkpt lat="48.99211" lon="2.0396">
        <ele>154</ele>
        <time>2019-02-16T15:20:15Z</time>
      </trkpt>
      <trkpt lat="48.9922" lon="2.03964">
        <ele>153</ele>
        <time>2019-02-16T15:20:21Z</time>
      </trkpt>
      <trkpt lat="48.99229" lon="2.0397">
        <ele>153</ele>
        <time>2019-02-16T15:20:29Z</time>
      </trkpt>
      <trkpt lat="48.99238" lon="2.03975">
        <ele>153</ele>
        <time>2019-02-16T15:20:36Z</time>
      </trkpt>
      <trkpt lat="48.99247" lon="2.0398">
        <ele>152</ele>
        <time>2019-02-16T15:20:43Z</time>
      </trkpt>
      <trkpt lat="48.99256" lon="2.03985">
        <ele>152</ele>
        <time>2019-02-16T15:20:51Z</time>
      </trkpt>
      <trkpt lat="48.99265" lon="2.0399">
        <ele>152</ele>
        <time>2019-02-16T15:20:59Z</time>
      </trkpt>
      <trkpt lat="48.99273" lon="2.03999">
        <ele>151</ele>
        <time>2019-02-16T15:21:07Z</time>
      </trkpt>
      <trkpt lat="48.99279" lon="2.04011">
        <ele>151</ele>
        <time>2019-02-16T15:21:15Z</time>
      </trkpt>
      <trkpt lat="48.99286" lon="2.04021">
        <ele>151</ele>
        <time>2019-02-16T15:21:23Z</time>
      </trkpt>
      <trkpt lat="48.99291" lon="2.04033">
        <ele>150</ele>
        <time>2019-02-16T15:21:29Z</time>
      </trkpt>
      <trkpt lat="48.99296" lon="2.04047">
        <ele>150</ele>
        <time>2019-02-16T15:21:35Z</time>
      </trkpt>
      <trkpt lat="48.99302" lon="2.04057">
        <ele>150</ele>
        <time>2019-02-16T15:21:41Z</time>
      </trkpt>
      <trkpt lat="48.99307" lon="2.04069">
        <ele>149</ele>
        <time>2019-02-16T15:21:49Z</time>
      </trkpt>
      <trkpt lat="48.99313" lon="2.0408">
        <ele>149</ele>
        <time>2019-02-16T15:21:56Z</time>
      </trkpt>
      <trkpt lat="48.99318" lon="2.04092">
        <ele>149</ele>
        <time>2019-02-16T15:22:02Z</time>
      </trkpt>
      <trkpt lat="48.99321" lon="2.04106">
        <ele>148</ele>
        <time>2019-02-16T15:22:10Z</time>
      </trkpt>
      <trkpt lat="48.99324" lon="2.0412">
        <ele>148</ele>
        <time>2019-02-16T15:22:17Z</time>
      </trkpt>
      <trkpt lat="48.99329" lon="2.04131">
        <ele>148</ele>
        <time>2019-02-16T15:22:22Z</time>
      </trkpt>
      <trkpt lat="48.99334" lon="2.04144">
        <ele>147</ele>
        <time>2019-02-16T15:22:32Z</time>
      </trkpt>
      <trkpt lat="48.9934" lon="2.04157">
        <ele>147</ele>
        <time>2019-02-16T15:22:39Z</time>
      </trkpt>
      <trkpt lat="48.99345" lon="2.04171">
        <ele>146</ele>
        <time>2019-02-16T15:22:46Z</time>
      </trkpt>
      <trkpt lat="48.9935" lon="2.04184">
        <ele>146</ele>
        <time>2019-02-16T15:22:53Z</time>
      </trkpt>
      <trkpt lat="48.99354" lon="2.04196">
        <ele>146</ele>
        <time>2019-02-16T15:23:00Z</time>
      </trkpt>
      <trkpt lat="48.9936" lon="2.04208">
        <ele>145</ele>
        <time>2019-02-16T15:23:08Z</time>
      </trkpt>
      <trkpt lat="48.99366" lon="2.04221">
        <ele>145</ele>
        <time>2019-02-16T15:23:15Z</time>
      </trkpt>
      <trkpt lat="48.9937" lon="2.04235">
        <ele>144</ele>
        <time>2019-02-16T15:23:23Z</time>
      </trkpt>
      <trkpt lat="48.99373" lon="2.04248">
        <ele>144</ele>
        <time>2019-02-16T15:23:31Z</time>
      </trkpt>
      <trkpt lat="48.99377" lon="2.04261">
        <ele>144</ele>
        <time>2019-02-16T15:23:39Z</time>
      </trkpt>
      <trkpt lat="48.99384" lon="2.04274">
        <ele>143</ele>
        <time>2019-02-16T15:23:46Z</time>
      </trkpt>
      <trkpt lat="48.9939" lon="2.04285">
        <ele>143</ele>
        <time>2019-02-16T15:23:52Z</time>
      </trkpt>
      <trkpt lat="48.99395" lon="2.04297">
        <ele>143</ele>
        <time>2019-02-16T15:23:58Z</time>
      </trkpt>
      <trkpt lat="48.99402" lon="2.0431">
        <ele>142</ele>
        <time>2019-02-16T15:24:06Z</time>
      </trkpt>
      <trkpt lat="48.99405" lon="2.04323">
        <ele>142</ele>
        <time>2019-02-16T15:24:13Z</time>
      </trkpt>
      <trkpt lat="48.99411" lon="2.04335">
        <ele>142</ele>
        <time>2019-02-16T15:24:20Z</time>
      </trkpt>
      <trkpt lat="48.99419" lon="2.04344">
        <ele>141</ele>
        <time>2019-02-16T15:24:26Z</time>
      </trkpt>
      <trkpt lat="48.99425" lon="2.04354">
        <ele>141</ele>
        <time>2019-02-16T15:24:31Z</time>
      </trkpt>
      <trkpt lat="48.99429" lon="2.04368">
        <ele>141</ele>
        <time>2019-02-16T15:24:41Z</time>
      </trkpt>
      <trkpt lat="48.99435" lon="2.04381">
        <ele>141</ele>
        <time>2019-02-16T15:24:47Z</time>
      </trkpt>
      <trkpt lat="48.99441" lon="2.04392">
        <ele>141</ele>
        <time>2019-02-16T15:24:56Z</time>
      </trkpt>
      <trkpt lat="48.99448" lon="2.04402">
        <ele>141</ele>
        <time>2019-02-16T15:25:02Z</time>
      </trkpt>
      <trkpt lat="48.99449" lon="2.04417">
        <ele>141</ele>
        <time>2019-02-16T15:25:10Z</time>
      </trkpt>
      <trkpt lat="48.99453" lon="2.0443">
        <ele>141</ele>
        <time>2019-02-16T15:25:17Z</time>
      </trkpt>
      <trkpt lat="48.99458" lon="2.04442">
        <ele>140</ele>
        <time>2019-02-16T15:25:25Z</time>
      </trkpt>
      <trkpt lat="48.99465" lon="2.04454">
        <ele>140</ele>
        <time>2019-02-16T15:25:32Z</time>
      </trkpt>
      <trkpt lat="48.99461" lon="2.04467">
        <ele>140</ele>
        <time>2019-02-16T15:26:03Z</time>
      </trkpt>
      <trkpt lat="48.99451" lon="2.04473">
        <ele>139</ele>
        <time>2019-02-16T15:26:11Z</time>
      </trkpt>
      <trkpt lat="48.99441" lon="2.04474">
        <ele>139</ele>
        <time>2019-02-16T15:26:16Z</time>
      </trkpt>
      <trkpt lat="48.99431" lon="2.04476">
        <ele>138</ele>
        <time>2019-02-16T15:26:23Z</time>
      </trkpt>
      <trkpt lat="48.99422" lon="2.04474">
        <ele>137</ele>
        <time>2019-02-16T15:26:30Z</time>
      </trkpt>
      <trkpt lat="48.99412" lon="2.04474">
        <ele>136</ele>
        <time>2019-02-16T15:26:40Z</time>
      </trkpt>
      <trkpt lat="48.99403" lon="2.04475">
        <ele>136</ele>
        <time>2019-02-16T15:26:51Z</time>
      </trkpt>
      <trkpt lat="48.99393" lon="2.04475">
        <ele>135</ele>
        <time>2019-02-16T15:27:02Z</time>
      </trkpt>
      <trkpt lat="48.99386" lon="2.04483">
        <ele>134</ele>
        <time>2019-02-16T15:27:14Z</time>
      </trkpt>
      <trkpt lat="48.99376" lon="2.04483">
        <ele>134</ele>
        <time>2019-02-16T15:27:21Z</time>
      </trkpt>
      <trkpt lat="48.99369" lon="2.04494">
        <ele>133</ele>
        <time>2019-02-16T15:27:28Z</time>
      </trkpt>
      <trkpt lat="48.99363" lon="2.04505">
        <ele>133</ele>
        <time>2019-02-16T15:27:35Z</time>
      </trkpt>
      <trkpt lat="48.99355" lon="2.04516">
        <ele>132</ele>
        <time>2019-02-16T15:27:42Z</time>
      </trkpt>
      <trkpt lat="48.99349" lon="2.04525">
        <ele>132</ele>
        <time>2019-02-16T15:27:51Z</time>
      </trkpt>
      <trkpt lat="48.99342" lon="2.04538">
        <ele>132</ele>
        <time>2019-02-16T15:27:59Z</time>
      </trkpt>
      <trkpt lat="48.99335" lon="2.04549">
        <ele>131</ele>
        <time>2019-02-16T15:28:09Z</time>
      </trkpt>
      <trkpt lat="48.99329" lon="2.04558">
        <ele>131</ele>
        <time>2019-02-16T15:28:14Z</time>
      </trkpt>
      <trkpt lat="48.99319" lon="2.04562">
        <ele>131</ele>
        <time>2019-02-16T15:28:27Z</time>
      </trkpt>
      <trkpt lat="48.9931" lon="2.04566">
        <ele>130</ele>
        <time>2019-02-16T15:28:35Z</time>
      </trkpt>
      <trkpt lat="48.99299" lon="2.04566">
        <ele>130</ele>
        <time>2019-02-16T15:28:45Z</time>
      </trkpt>
      <trkpt lat="48.99289" lon="2.04567">
        <ele>130</ele>
        <time>2019-02-16T15:28:51Z</time>
      </trkpt>
      <trkpt lat="48.99279" lon="2.04569">
        <ele>130</ele>
        <time>2019-02-16T15:29:00Z</time>
      </trkpt>
      <trkpt lat="48.99271" lon="2.04572">
        <ele>130</ele>
        <time>2019-02-16T15:29:07Z</time>
      </trkpt>
      <trkpt lat="48.99262" lon="2.04578">
        <ele>129</ele>
        <time>2019-02-16T15:29:15Z</time>
      </trkpt>
      <trkpt lat="48.99252" lon="2.0458">
        <ele>129</ele>
        <time>2019-02-16T15:29:22Z</time>
      </trkpt>
      <trkpt lat="48.99242" lon="2.04582">
        <ele>129</ele>
        <time>2019-02-16T15:29:30Z</time>
      </trkpt>
      <trkpt lat="48.99232" lon="2.04585">
        <ele>129</ele>
        <time>2019-02-16T15:29:36Z</time>
      </trkpt>
      <trkpt lat="48.99223" lon="2.04586">
        <ele>129</ele>
        <time>2019-02-16T15:29:42Z</time>
      </trkpt>
      <trkpt lat="48.99212" lon="2.04588">
        <ele>129</ele>
        <time>2019-02-16T15:29:51Z</time>
      </trkpt>
      <trkpt lat="48.99203" lon="2.0459">
        <ele>129</ele>
        <time>2019-02-16T15:29:58Z</time>
      </trkpt>
      <trkpt lat="48.99194" lon="2.04595">
        <ele>128</ele>
        <time>2019-02-16T15:30:04Z</time>
      </trkpt>
      <trkpt lat="48.99183" lon="2.04595">
        <ele>128</ele>
        <time>2019-02-16T15:30:15Z</time>
      </trkpt>
      <trkpt lat="48.99174" lon="2.04599">
        <ele>128</ele>
        <time>2019-02-16T15:30:25Z</time>
      </trkpt>
      <trkpt lat="48.99164" lon="2.04597">
        <ele>128</ele>
        <time>2019-02-16T15:30:34Z</time>
      </trkpt>
      <trkpt lat="48.99155" lon="2.04601">
        <ele>128</ele>
        <time>2019-02-16T15:30:44Z</time>
      </trkpt>
      <trkpt lat="48.99144" lon="2.046">
        <ele>128</ele>
        <time>2019-02-16T15:30:53Z</time>
      </trkpt>
      <trkpt lat="48.99136" lon="2.04605">
        <ele>128</ele>
        <time>2019-02-16T15:30:57Z</time>
      </trkpt>
      <trkpt lat="48.99127" lon="2.04609">
        <ele>127</ele>
        <time>2019-02-16T15:31:04Z</time>
      </trkpt>
      <trkpt lat="48.99118" lon="2.0461">
        <ele>127</ele>
        <time>2019-02-16T15:31:13Z</time>
      </trkpt>
      <trkpt lat="48.99109" lon="2.04613">
        <ele>127</ele>
        <time>2019-02-16T15:31:20Z</time>
      </trkpt>
      <trkpt lat="48.99099" lon="2.04617">
        <ele>127</ele>
        <time>2019-02-16T15:31:27Z</time>
      </trkpt>
      <trkpt lat="48.9909" lon="2.04619">
        <ele>127</ele>
        <time>2019-02-16T15:31:36Z</time>
      </trkpt>
      <trkpt lat="48.9908" lon="2.04626">
        <ele>127</ele>
        <time>2019-02-16T15:31:41Z</time>
      </trkpt>
      <trkpt lat="48.9907" lon="2.04628">
        <ele>127</ele>
        <time>2019-02-16T15:31:53Z</time>
      </trkpt>
      <trkpt lat="48.99061" lon="2.04632">
        <ele>127</ele>
        <time>2019-02-16T15:32:01Z</time>
      </trkpt>
      <trkpt lat="48.99051" lon="2.04634">
        <ele>127</ele>
        <time>2019-02-16T15:32:10Z</time>
      </trkpt>
      <trkpt lat="48.99043" lon="2.04639">
        <ele>127</ele>
        <time>2019-02-16T15:32:20Z</time>
      </trkpt>
      <trkpt lat="48.99039" lon="2.04652">
        <ele>127</ele>
        <time>2019-02-16T15:32:33Z</time>
      </trkpt>
      <trkpt lat="48.9904" lon="2.04666">
        <ele>127</ele>
        <time>2019-02-16T15:32:38Z</time>
      </trkpt>
      <trkpt lat="48.99042" lon="2.04679">
        <ele>127</ele>
        <time>2019-02-16T15:32:43Z</time>
      </trkpt>
      <trkpt lat="48.99044" lon="2.04693">
        <ele>127</ele>
        <time>2019-02-16T15:32:50Z</time>
      </trkpt>
      <trkpt lat="48.99047" lon="2.04706">
        <ele>127</ele>
        <time>2019-02-16T15:32:57Z</time>
      </trkpt>
      <trkpt lat="48.99038" lon="2.0471">
        <ele>127</ele>
        <time>2019-02-16T15:33:06Z</time>
      </trkpt>
      <trkpt lat="48.99029" lon="2.04711">
        <ele>127</ele>
        <time>2019-02-16T15:33:13Z</time>
      </trkpt>
      <trkpt lat="48.99021" lon="2.04719">
        <ele>127</ele>
        <time>2019-02-16T15:33:19Z</time>
      </trkpt>
      <trkpt lat="48.99013" lon="2.04727">
        <ele>127</ele>
        <time>2019-02-16T15:33:26Z</time>
      </trkpt>
      <trkpt lat="48.99003" lon="2.04732">
        <ele>127</ele>
        <time>2019-02-16T15:33:34Z</time>
      </trkpt>
      <trkpt lat="48.98993" lon="2.04736">
        <ele>128</ele>
        <time>2019-02-16T15:33:43Z</time>
      </trkpt>
      <trkpt lat="48.98984" lon="2.0474">
        <ele>128</ele>
        <time>2019-02-16T15:33:50Z</time>
      </trkpt>
      <trkpt lat="48.98974" lon="2.04743">
        <ele>128</ele>
        <time>2019-02-16T15:33:58Z</time>
      </trkpt>
      <trkpt lat="48.98966" lon="2.04749">
        <ele>128</ele>
        <time>2019-02-16T15:34:05Z</time>
      </trkpt>
      <trkpt lat="48.98957" lon="2.04752">
        <ele>128</ele>
        <time>2019-02-16T15:34:13Z</time>
      </trkpt>
      <trkpt lat="48.98948" lon="2.04756">
        <ele>129</ele>
        <time>2019-02-16T15:34:21Z</time>
      </trkpt>
      <trkpt lat="48.98939" lon="2.04761">
        <ele>129</ele>
        <time>2019-02-16T15:34:28Z</time>
      </trkpt>
      <trkpt lat="48.9893" lon="2.04766">
        <ele>129</ele>
        <time>2019-02-16T15:34:36Z</time>
      </trkpt>
      <trkpt lat="48.98921" lon="2.0477">
        <ele>129</ele>
        <time>2019-02-16T15:34:45Z</time>
      </trkpt>
      <trkpt lat="48.98912" lon="2.04775">
        <ele>129</ele>
        <time>2019-02-16T15:34:52Z</time>
      </trkpt>
      <trkpt lat="48.98903" lon="2.04779">
        <ele>130</ele>
        <time>2019-02-16T15:35:00Z</time>
      </trkpt>
      <trkpt lat="48.98894" lon="2.04784">
        <ele>130</ele>
        <time>2019-02-16T15:35:06Z</time>
      </trkpt>
      <trkpt lat="48.98885" lon="2.04789">
        <ele>130</ele>
        <time>2019-02-16T15:35:12Z</time>
      </trkpt>
      <trkpt lat="48.98877" lon="2.04795">
        <ele>130</ele>
        <time>2019-02-16T15:35:20Z</time>
      </trkpt>
      <trkpt lat="48.98868" lon="2.048">
        <ele>131</ele>
        <time>2019-02-16T15:35:27Z</time>
      </trkpt>
      <trkpt lat="48.98859" lon="2.04801">
        <ele>131</ele>
        <time>2019-02-16T15:35:33Z</time>
      </trkpt>
      <trkpt lat="48.9885" lon="2.04807">
        <ele>131</ele>
        <time>2019-02-16T15:35:40Z</time>
      </trkpt>
      <trkpt lat="48.98839" lon="2.04809">
        <ele>131</ele>
        <time>2019-02-16T15:35:50Z</time>
      </trkpt>
      <trkpt lat="48.98829" lon="2.04812">
        <ele>132</ele>
        <time>2019-02-16T15:35:58Z</time>
      </trkpt>
      <trkpt lat="48.98819" lon="2.04814">
        <ele>132</ele>
        <time>2019-02-16T15:36:05Z</time>
      </trkpt>
      <trkpt lat="48.9881" lon="2.04819">
        <ele>132</ele>
        <time>2019-02-16T15:36:12Z</time>
      </trkpt>
      <trkpt lat="48.98801" lon="2.04824">
        <ele>132</ele>
        <time>2019-02-16T15:36:20Z</time>
      </trkpt>
      <trkpt lat="48.98793" lon="2.04832">
        <ele>132</ele>
        <time>2019-02-16T15:36:27Z</time>
      </trkpt>
      <trkpt lat="48.98784" lon="2.04839">
        <ele>132</ele>
        <time>2019-02-16T15:36:34Z</time>
      </trkpt>
      <trkpt lat="48.98775" lon="2.04846">
        <ele>133</ele>
        <time>2019-02-16T15:36:41Z</time>
      </trkpt>
      <trkpt lat="48.98766" lon="2.04849">
        <ele>133</ele>
        <time>2019-02-16T15:36:48Z</time>
      </trkpt>
      <trkpt lat="48.98758" lon="2.04854">
        <ele>133</ele>
        <time>2019-02-16T15:36:56Z</time>
      </trkpt>
      <trkpt lat="48.98748" lon="2.04858">
        <ele>133</ele>
        <time>2019-02-16T15:37:04Z</time>
      </trkpt>
      <trkpt lat="48.98738" lon="2.04859">
        <ele>133</ele>
        <time>2019-02-16T15:37:11Z</time>
      </trkpt>
      <trkpt lat="48.98729" lon="2.04854">
        <ele>134</ele>
        <time>2019-02-16T15:37:18Z</time>
      </trkpt>
      <trkpt lat="48.98725" lon="2.0484">
        <ele>134</ele>
        <time>2019-02-16T15:37:26Z</time>
      </trkpt>
      <trkpt lat="48.98724" lon="2.04826">
        <ele>134</ele>
        <time>2019-02-16T15:37:33Z</time>
      </trkpt>
      <trkpt lat="48.98722" lon="2.04811">
        <ele>134</ele>
        <time>2019-02-16T15:37:45Z</time>
      </trkpt>
      <trkpt lat="48.98717" lon="2.048">
        <ele>135</ele>
        <time>2019-02-16T15:37:53Z</time>
      </trkpt>
      <trkpt lat="48.98707" lon="2.04798">
        <ele>135</ele>
        <time>2019-02-16T15:38:02Z</time>
      </trkpt>
      <trkpt lat="48.98698" lon="2.04794">
        <ele>135</ele>
        <time>2019-02-16T15:38:11Z</time>
      </trkpt>
      <trkpt lat="48.98692" lon="2.04782">
        <ele>135</ele>
        <time>2019-02-16T15:38:18Z</time>
      </trkpt>
      <trkpt lat="48.98691" lon="2.04768">
        <ele>136</ele>
        <time>2019-02-16T15:38:25Z</time>
      </trkpt>
      <trkpt lat="48.9869" lon="2.04753">
        <ele>136</ele>
        <time>2019-02-16T15:38:37Z</time>
      </trkpt>
      <trkpt lat="48.98682" lon="2.04746">
        <ele>136</ele>
        <time>2019-02-16T15:38:47Z</time>
      </trkpt>
      <trkpt lat="48.98672" lon="2.04749">
        <ele>137</ele>
        <time>2019-02-16T15:39:00Z</time>
      </trkpt>
      <trkpt lat="48.98663" lon="2.04749">
        <ele>137</ele>
        <time>2019-02-16T15:39:05Z</time>
      </trkpt>
      <trkpt lat="48.98653" lon="2.04752">
        <ele>137</ele>
        <time>2019-02-16T15:39:10Z</time>
      </trkpt>
      <trkpt lat="48.98643" lon="2.04749">
        <ele>137</ele>
        <time>2019-02-16T15:39:17Z</time>
      </trkpt>
      <trkpt lat="48.98634" lon="2.04751">
        <ele>137</ele>
        <time>2019-02-16T15:39:26Z</time>
      </trkpt>
      <trkpt lat="48.98624" lon="2.0475">
        <ele>140</ele>
        <time>2019-02-16T15:41:44Z</time>
      </trkpt>
      <trkpt lat="48.98616" lon="2.04757">
        <ele>140</ele>
        <time>2019-02-16T15:41:51Z</time>
      </trkpt>
      <trkpt lat="48.98607" lon="2.04756">
        <ele>141</ele>
        <time>2019-02-16T15:42:19Z</time>
      </trkpt>
      <trkpt lat="48.98597" lon="2.04757">
        <ele>142</ele>
        <time>2019-02-16T15:42:29Z</time>
      </trkpt>
      <trkpt lat="48.98588" lon="2.04755">
        <ele>142</ele>
        <time>2019-02-16T15:42:38Z</time>
      </trkpt>
      <trkpt lat="48.98578" lon="2.04757">
        <ele>142</ele>
        <time>2019-02-16T15:42:45Z</time>
      </trkpt>
      <trkpt lat="48.98568" lon="2.04758">
        <ele>142</ele>
        <time>2019-02-16T15:42:56Z</time>
      </trkpt>
      <trkpt lat="48.98558" lon="2.04759">
        <ele>142</ele>
        <time>2019-02-16T15:43:04Z</time>
      </trkpt>
      <trkpt lat="48.98548" lon="2.04758">
        <ele>143</ele>
        <time>2019-02-16T15:43:09Z</time>
      </trkpt>
      <trkpt lat="48.98538" lon="2.04756">
        <ele>143</ele>
        <time>2019-02-16T15:43:15Z</time>
      </trkpt>
      <trkpt lat="48.98528" lon="2.04757">
        <ele>143</ele>
        <time>2019-02-16T15:43:21Z</time>
      </trkpt>
      <trkpt lat="48.98519" lon="2.04757">
        <ele>143</ele>
        <time>2019-02-16T15:43:31Z</time>
      </trkpt>
      <trkpt lat="48.98509" lon="2.04754">
        <ele>143</ele>
        <time>2019-02-16T15:43:41Z</time>
      </trkpt>
      <trkpt lat="48.98499" lon="2.04759">
        <ele>143</ele>
        <time>2019-02-16T15:43:49Z</time>
      </trkpt>
      <trkpt lat="48.98492" lon="2.04771">
        <ele>143</ele>
        <time>2019-02-16T15:43:56Z</time>
      </trkpt>
      <trkpt lat="48.98488" lon="2.04787">
        <ele>143</ele>
        <time>2019-02-16T15:44:03Z</time>
      </trkpt>
      <trkpt lat="48.98487" lon="2.04802">
        <ele>143</ele>
        <time>2019-02-16T15:44:11Z</time>
      </trkpt>
      <trkpt lat="48.98489" lon="2.04816">
        <ele>143</ele>
        <time>2019-02-16T15:44:18Z</time>
      </trkpt>
      <trkpt lat="48.98492" lon="2.04831">
        <ele>143</ele>
        <time>2019-02-16T15:44:26Z</time>
      </trkpt>
      <trkpt lat="48.98496" lon="2.04845">
        <ele>143</ele>
        <time>2019-02-16T15:44:33Z</time>
      </trkpt>
      <trkpt lat="48.98497" lon="2.0486">
        <ele>143</ele>
        <time>2019-02-16T15:44:41Z</time>
      </trkpt>
      <trkpt lat="48.98498" lon="2.04874">
        <ele>143</ele>
        <time>2019-02-16T15:44:50Z</time>
      </trkpt>
      <trkpt lat="48.98498" lon="2.04888">
        <ele>143</ele>
        <time>2019-02-16T15:44:58Z</time>
      </trkpt>
      <trkpt lat="48.98498" lon="2.04903">
        <ele>143</ele>
        <time>2019-02-16T15:45:07Z</time>
      </trkpt>
      <trkpt lat="48.98497" lon="2.04918">
        <ele>143</ele>
        <time>2019-02-16T15:45:18Z</time>
      </trkpt>
      <trkpt lat="48.98498" lon="2.04932">
        <ele>143</ele>
        <time>2019-02-16T15:45:28Z</time>
      </trkpt>
      <trkpt lat="48.98498" lon="2.04946">
        <ele>143</ele>
        <time>2019-02-16T15:45:38Z</time>
      </trkpt>
      <trkpt lat="48.98501" lon="2.04959">
        <ele>143</ele>
        <time>2019-02-16T15:45:45Z</time>
      </trkpt>
      <trkpt lat="48.98503" lon="2.04973">
        <ele>143</ele>
        <time>2019-02-16T15:45:55Z</time>
      </trkpt>
      <trkpt lat="48.98504" lon="2.04988">
        <ele>143</ele>
        <time>2019-02-16T15:46:05Z</time>
      </trkpt>
      <trkpt lat="48.98506" lon="2.05003">
        <ele>143</ele>
        <time>2019-02-16T15:46:13Z</time>
      </trkpt>
      <trkpt lat="48.98508" lon="2.05018">
        <ele>143</ele>
        <time>2019-02-16T15:46:21Z</time>
      </trkpt>
      <trkpt lat="48.98509" lon="2.05032">
        <ele>143</ele>
        <time>2019-02-16T15:46:29Z</time>
      </trkpt>
      <trkpt lat="48.98511" lon="2.05046">
        <ele>143</ele>
        <time>2019-02-16T15:46:34Z</time>
      </trkpt>
      <trkpt lat="48.98512" lon="2.0506">
        <ele>143</ele>
        <time>2019-02-16T15:46:43Z</time>
      </trkpt>
      <trkpt lat="48.98512" lon="2.05076">
        <ele>143</ele>
        <time>2019-02-16T15:46:52Z</time>
      </trkpt>
      <trkpt lat="48.98515" lon="2.0509">
        <ele>143</ele>
        <time>2019-02-16T15:47:00Z</time>
      </trkpt>
      <trkpt lat="48.98518" lon="2.05104">
        <ele>142</ele>
        <time>2019-02-16T15:47:09Z</time>
      </trkpt>
      <trkpt lat="48.98518" lon="2.05118">
        <ele>142</ele>
        <time>2019-02-16T15:47:14Z</time>
      </trkpt>
      <trkpt lat="48.98516" lon="2.05133">
        <ele>142</ele>
        <time>2019-02-16T15:47:23Z</time>
      </trkpt>
      <trkpt lat="48.98518" lon="2.05149">
        <ele>142</ele>
        <time>2019-02-16T15:47:32Z</time>
      </trkpt>
      <trkpt lat="48.98519" lon="2.05163">
        <ele>142</ele>
        <time>2019-02-16T15:47:38Z</time>
      </trkpt>
      <trkpt lat="48.98519" lon="2.05178">
        <ele>142</ele>
        <time>2019-02-16T15:47:46Z</time>
      </trkpt>
      <trkpt lat="48.98521" lon="2.05193">
        <ele>142</ele>
        <time>2019-02-16T15:47:56Z</time>
      </trkpt>
      <trkpt lat="48.98525" lon="2.05206">
        <ele>142</ele>
        <time>2019-02-16T15:48:06Z</time>
      </trkpt>
      <trkpt lat="48.98534" lon="2.05208">
        <ele>142</ele>
        <time>2019-02-16T15:48:12Z</time>
      </trkpt>
      <trkpt lat="48.98543" lon="2.05202">
        <ele>142</ele>
        <time>2019-02-16T15:48:17Z</time>
      </trkpt>
      <trkpt lat="48.9855" lon="2.05194">
        <ele>142</ele>
        <time>2019-02-16T15:48:23Z</time>
      </trkpt>
      <trkpt lat="48.98558" lon="2.05184">
        <ele>142</ele>
        <time>2019-02-16T15:48:30Z</time>
      </trkpt>
      <trkpt lat="48.98565" lon="2.05176">
        <ele>141</ele>
        <time>2019-02-16T15:48:37Z</time>
      </trkpt>
      <trkpt lat="48.98573" lon="2.05169">
        <ele>141</ele>
        <time>2019-02-16T15:48:43Z</time>
      </trkpt>
      <trkpt lat="48.98581" lon="2.0516">
        <ele>141</ele>
        <time>2019-02-16T15:48:51Z</time>
      </trkpt>
      <trkpt lat="48.98588" lon="2.05151">
        <ele>141</ele>
        <time>2019-02-16T15:48:57Z</time>
      </trkpt>
      <trkpt lat="48.98595" lon="2.05139">
        <ele>141</ele>
        <time>2019-02-16T15:49:06Z</time>
      </trkpt>
      <trkpt lat="48.98602" lon="2.05129">
        <ele>141</ele>
        <time>2019-02-16T15:49:15Z</time>
      </trkpt>
      <trkpt lat="48.98609" lon="2.05118">
        <ele>141</ele>
        <time>2019-02-16T15:49:19Z</time>
      </trkpt>
      <trkpt lat="48.98617" lon="2.0511">
        <ele>141</ele>
        <time>2019-02-16T15:49:25Z</time>
      </trkpt>
      <trkpt lat="48.98625" lon="2.05118">
        <ele>141</ele>
        <time>2019-02-16T15:49:32Z</time>
      </trkpt>
      <trkpt lat="48.98626" lon="2.05133">
        <ele>141</ele>
        <time>2019-02-16T15:50:17Z</time>
      </trkpt>
      <trkpt lat="48.98627" lon="2.05148">
        <ele>140</ele>
        <time>2019-02-16T15:50:28Z</time>
      </trkpt>
      <trkpt lat="48.98627" lon="2.05162">
        <ele>140</ele>
        <time>2019-02-16T15:50:36Z</time>
      </trkpt>
      <trkpt lat="48.98628" lon="2.05176">
        <ele>140</ele>
        <time>2019-02-16T15:50:44Z</time>
      </trkpt>
      <trkpt lat="48.98626" lon="2.05191">
        <ele>140</ele>
        <time>2019-02-16T15:50:56Z</time>
      </trkpt>
      <trkpt lat="48.98624" lon="2.05206">
        <ele>140</ele>
        <time>2019-02-16T15:51:04Z</time>
      </trkpt>
      <trkpt lat="48.98624" lon="2.0522">
        <ele>140</ele>
        <time>2019-02-16T15:51:11Z</time>
      </trkpt>
      <trkpt lat="48.98626" lon="2.05235">
        <ele>140</ele>
        <time>2019-02-16T15:51:19Z</time>
      </trkpt>
      <trkpt lat="48.98626" lon="2.0525">
        <ele>140</ele>
        <time>2019-02-16T15:51:27Z</time>
      </trkpt>
      <trkpt lat="48.98627" lon="2.05265">
        <ele>139</ele>
        <time>2019-02-16T15:51:35Z</time>
      </trkpt>
      <trkpt lat="48.98629" lon="2.05281">
        <ele>139</ele>
        <time>2019-02-16T15:51:44Z</time>
      </trkpt>
      <trkpt lat="48.98629" lon="2.05296">
        <ele>139</ele>
        <time>2019-02-16T15:51:50Z</time>
      </trkpt>
      <trkpt lat="48.98633" lon="2.0531">
        <ele>139</ele>
        <time>2019-02-16T15:51:58Z</time>
      </trkpt>
      <trkpt lat="48.98642" lon="2.05319">
        <ele>139</ele>
        <time>2019-02-16T15:52:07Z</time>
      </trkpt>
      <trkpt lat="48.98638" lon="2.05332">
        <ele>138</ele>
        <time>2019-02-16T15:52:37Z</time>
      </trkpt>
      <trkpt lat="48.9864" lon="2.05347">
        <ele>138</ele>
        <time>2019-02-16T15:52:44Z</time>
      </trkpt>
      <trkpt lat="48.98643" lon="2.05362">
        <ele>138</ele>
        <time>2019-02-16T15:52:52Z</time>
      </trkpt>
      <trkpt lat="48.98645" lon="2.05379">
        <ele>138</ele>
        <time>2019-02-16T15:53:00Z</time>
      </trkpt>
      <trkpt lat="48.98646" lon="2.05393">
        <ele>138</ele>
        <time>2019-02-16T15:53:04Z</time>
      </trkpt>
      <trkpt lat="48.98647" lon="2.05409">
        <ele>138</ele>
        <time>2019-02-16T15:53:10Z</time>
      </trkpt>
      <trkpt lat="48.98648" lon="2.05423">
        <ele>138</ele>
        <time>2019-02-16T15:53:16Z</time>
      </trkpt>
      <trkpt lat="48.98652" lon="2.05437">
        <ele>138</ele>
        <time>2019-02-16T15:53:22Z</time>
      </trkpt>
      <trkpt lat="48.98655" lon="2.05449">
        <ele>138</ele>
        <time>2019-02-16T15:53:28Z</time>
      </trkpt>
      <trkpt lat="48.98655" lon="2.05464">
        <ele>137</ele>
        <time>2019-02-16T15:53:36Z</time>
      </trkpt>
      <trkpt lat="48.98657" lon="2.05479">
        <ele>137</ele>
        <time>2019-02-16T15:53:44Z</time>
      </trkpt>
      <trkpt lat="48.98658" lon="2.05493">
        <ele>137</ele>
        <time>2019-02-16T15:53:51Z</time>
      </trkpt>
      <trkpt lat="48.9866" lon="2.0551">
        <ele>137</ele>
        <time>2019-02-16T15:53:59Z</time>
      </trkpt>
      <trkpt lat="48.98664" lon="2.05523">
        <ele>137</ele>
        <time>2019-02-16T15:54:05Z</time>
      </trkpt>
      <trkpt lat="48.98666" lon="2.05537">
        <ele>137</ele>
        <time>2019-02-16T15:54:12Z</time>
      </trkpt>
      <trkpt lat="48.98667" lon="2.05552">
        <ele>136</ele>
        <time>2019-02-16T15:54:19Z</time>
      </trkpt>
      <trkpt lat="48.9867" lon="2.05566">
        <ele>136</ele>
        <time>2019-02-16T15:54:26Z</time>
      </trkpt>
      <trkpt lat="48.98671" lon="2.05581">
        <ele>136</ele>
        <time>2019-02-16T15:54:34Z</time>
      </trkpt>
      <trkpt lat="48.98674" lon="2.05596">
        <ele>136</ele>
        <time>2019-02-16T15:54:41Z</time>
      </trkpt>
      <trkpt lat="48.98675" lon="2.05611">
        <ele>136</ele>
        <time>2019-02-16T15:54:49Z</time>
      </trkpt>
      <trkpt lat="48.98676" lon="2.05626">
        <ele>135</ele>
        <time>2019-02-16T15:54:56Z</time>
      </trkpt>
      <trkpt lat="48.98676" lon="2.05641">
        <ele>135</ele>
        <time>2019-02-16T15:55:03Z</time>
      </trkpt>
      <trkpt lat="48.98677" lon="2.05655">
        <ele>135</ele>
        <time>2019-02-16T15:55:10Z</time>
      </trkpt>
      <trkpt lat="48.98682" lon="2.05668">
        <ele>135</ele>
        <time>2019-02-16T15:55:17Z</time>
      </trkpt>
      <trkpt lat="48.98686" lon="2.0568">
        <ele>134</ele>
        <time>2019-02-16T15:55:24Z</time>
      </trkpt>
      <trkpt lat="48.98688" lon="2.05695">
        <ele>134</ele>
        <time>2019-02-16T15:55:32Z</time>
      </trkpt>
      <trkpt lat="48.98692" lon="2.0571">
        <ele>134</ele>
        <time>2019-02-16T15:55:40Z</time>
      </trkpt>
      <trkpt lat="48.98694" lon="2.05725">
        <ele>134</ele>
        <time>2019-02-16T15:55:47Z</time>
      </trkpt>
      <trkpt lat="48.98698" lon="2.05739">
        <ele>134</ele>
        <time>2019-02-16T15:55:53Z</time>
      </trkpt>
      <trkpt lat="48.987" lon="2.05753">
        <ele>133</ele>
        <time>2019-02-16T15:55:58Z</time>
      </trkpt>
      <trkpt lat="48.98704" lon="2.05766">
        <ele>133</ele>
        <time>2019-02-16T15:56:05Z</time>
      </trkpt>
      <trkpt lat="48.98708" lon="2.0578">
        <ele>133</ele>
        <time>2019-02-16T15:56:13Z</time>
      </trkpt>
      <trkpt lat="48.9871" lon="2.05796">
        <ele>133</ele>
        <time>2019-02-16T15:56:21Z</time>
      </trkpt>
      <trkpt lat="48.98703" lon="2.05806">
        <ele>133</ele>
        <time>2019-02-16T15:56:29Z</time>
      </trkpt>
      <trkpt lat="48.98694" lon="2.05804">
        <ele>132</ele>
        <time>2019-02-16T15:56:43Z</time>
      </trkpt>
      <trkpt lat="48.98684" lon="2.05806">
        <ele>132</ele>
        <time>2019-02-16T15:56:53Z</time>
      </trkpt>
      <trkpt lat="48.98675" lon="2.05805">
        <ele>131</ele>
        <time>2019-02-16T15:57:00Z</time>
      </trkpt>
      <trkpt lat="48.98666" lon="2.05804">
        <ele>131</ele>
        <time>2019-02-16T15:57:07Z</time>
      </trkpt>
      <trkpt lat="48.98656" lon="2.05803">
        <ele>131</ele>
        <time>2019-02-16T15:57:16Z</time>
      </trkpt>
      <trkpt lat="48.98646" lon="2.05804">
        <ele>130</ele>
        <time>2019-02-16T15:57:23Z</time>
      </trkpt>
      <trkpt lat="48.98636" lon="2.05804">
        <ele>130</ele>
        <time>2019-02-16T15:57:31Z</time>
      </trkpt>
      <trkpt lat="48.98627" lon="2.05804">
        <ele>130</ele>
        <time>2019-02-16T15:57:38Z</time>
      </trkpt>
      <trkpt lat="48.98616" lon="2.05801">
        <ele>129</ele>
        <time>2019-02-16T15:57:45Z</time>
      </trkpt>
      <trkpt lat="48.98607" lon="2.05795">
        <ele>129</ele>
        <time>2019-02-16T15:57:53Z</time>
      </trkpt>
      <trkpt lat="48.98598" lon="2.05793">
        <ele>129</ele>
        <time>2019-02-16T15:58:00Z</time>
      </trkpt>
      <trkpt lat="48.98589" lon="2.05792">
        <ele>129</ele>
        <time>2019-02-16T15:58:09Z</time>
      </trkpt>
      <trkpt lat="48.9858" lon="2.05788">
        <ele>128</ele>
        <time>2019-02-16T15:58:20Z</time>
      </trkpt>
      <trkpt lat="48.9857" lon="2.05785">
        <ele>128</ele>
        <time>2019-02-16T15:58:29Z</time>
      </trkpt>
      <trkpt lat="48.9856" lon="2.05783">
        <ele>128</ele>
        <time>2019-02-16T15:58:36Z</time>
      </trkpt>
      <trkpt lat="48.98551" lon="2.05782">
        <ele>128</ele>
        <time>2019-02-16T15:58:43Z</time>
      </trkpt>
      <trkpt lat="48.98541" lon="2.05788">
        <ele>128</ele>
        <time>2019-02-16T15:58:50Z</time>
      </trkpt>
      <trkpt lat="48.98536" lon="2.058">
        <ele>127</ele>
        <time>2019-02-16T15:58:58Z</time>
      </trkpt>
      <trkpt lat="48.98533" lon="2.05814">
        <ele>127</ele>
        <time>2019-02-16T15:59:05Z</time>
      </trkpt>
      <trkpt lat="48.98532" lon="2.0583">
        <ele>127</ele>
        <time>2019-02-16T15:59:13Z</time>
      </trkpt>
      <trkpt lat="48.98531" lon="2.05844">
        <ele>127</ele>
        <time>2019-02-16T15:59:19Z</time>
      </trkpt>
      <trkpt lat="48.98537" lon="2.05856">
        <ele>127</ele>
        <time>2019-02-16T15:59:27Z</time>
      </trkpt>
      <trkpt lat="48.98547" lon="2.05861">
        <ele>127</ele>
        <time>2019-02-16T15:59:33Z</time>
      </trkpt>
      <trkpt lat="48.98557" lon="2.05868">
        <ele>126</ele>
        <time>2019-02-16T15:59:38Z</time>
      </trkpt>
      <trkpt lat="48.98566" lon="2.05874">
        <ele>126</ele>
        <time>2019-02-16T15:59:44Z</time>
      </trkpt>
      <trkpt lat="48.98575" lon="2.05877">
        <ele>126</ele>
        <time>2019-02-16T15:59:51Z</time>
      </trkpt>
      <trkpt lat="48.98584" lon="2.05878">
        <ele>126</ele>
        <time>2019-02-16T15:59:57Z</time>
      </trkpt>
      <trkpt lat="48.98593" lon="2.05883">
        <ele>125</ele>
        <time>2019-02-16T16:00:08Z</time>
      </trkpt>
      <trkpt lat="48.98602" lon="2.05889">
        <ele>125</ele>
        <time>2019-02-16T16:00:17Z</time>
      </trkpt>
      <trkpt lat="48.98611" lon="2.05894">
        <ele>125</ele>
        <time>2019-02-16T16:00:27Z</time>
      </trkpt>
      <trkpt lat="48.9862" lon="2.05896">
        <ele>124</ele>
        <time>2019-02-16T16:00:33Z</time>
      </trkpt>
      <trkpt lat="48.98629" lon="2.05904">
        <ele>124</ele>
        <time>2019-02-16T16:00:38Z</time>
      </trkpt>
      <trkpt lat="48.98639" lon="2.0591">
        <ele>123</ele>
        <time>2019-02-16T16:00:45Z</time>
      </trkpt>
      <trkpt lat="48.98647" lon="2.05919">
        <ele>123</ele>
        <time>2019-02-16T16:00:53Z</time>
      </trkpt>
      <trkpt lat="48.98655" lon="2.05928">
        <ele>122</ele>
        <time>2019-02-16T16:01:01Z</time>
      </trkpt>
      <trkpt lat="48.98663" lon="2.05934">
        <ele>122</ele>
        <time>2019-02-16T16:01:07Z</time>
      </trkpt>
      <trkpt lat="48.98671" lon="2.05944">
        <ele>121</ele>
        <time>2019-02-16T16:01:18Z</time>
      </trkpt>
      <trkpt lat="48.9868" lon="2.05951">
        <ele>120</ele>
        <time>2019-02-16T16:01:25Z</time>
      </trkpt>
      <trkpt lat="48.98689" lon="2.05953">
        <ele>120</ele>
        <time>2019-02-16T16:01:33Z</time>
      </trkpt>
      <trkpt lat="48.98698" lon="2.05959">
        <ele>119</ele>
        <time>2019-02-16T16:01:47Z</time>
      </trkpt>
      <trkpt lat="48.98708" lon="2.0596">
        <ele>118</ele>
        <time>2019-02-16T16:01:55Z</time>
      </trkpt>
      <trkpt lat="48.9872" lon="2.05958">
        <ele>118</ele>
        <time>2019-02-16T16:01:58Z</time>
      </trkpt>
      <trkpt lat="48.98728" lon="2.05968">
        <ele>117</ele>
        <time>2019-02-16T16:02:09Z</time>
      </trkpt>
      <trkpt lat="48.98735" lon="2.05977">
        <ele>116</ele>
        <time>2019-02-16T16:02:18Z</time>
      </trkpt>
      <trkpt lat="48.98743" lon="2.05983">
        <ele>116</ele>
        <time>2019-02-16T16:02:25Z</time>
      </trkpt>
      <trkpt lat="48.98753" lon="2.05987">
        <ele>115</ele>
        <time>2019-02-16T16:02:31Z</time>
      </trkpt>
      <trkpt lat="48.98762" lon="2.05992">
        <ele>114</ele>
        <time>2019-02-16T16:02:43Z</time>
      </trkpt>
      <trkpt lat="48.98773" lon="2.05995">
        <ele>114</ele>
        <time>2019-02-16T16:02:53Z</time>
      </trkpt>
      <trkpt lat="48.98783" lon="2.06">
        <ele>113</ele>
        <time>2019-02-16T16:02:57Z</time>
      </trkpt>
      <trkpt lat="48.98791" lon="2.06006">
        <ele>113</ele>
        <time>2019-02-16T16:03:06Z</time>
      </trkpt>
      <trkpt lat="48.98799" lon="2.06014">
        <ele>112</ele>
        <time>2019-02-16T16:03:13Z</time>
      </trkpt>
      <trkpt lat="48.98806" lon="2.06024">
        <ele>112</ele>
        <time>2019-02-16T16:03:18Z</time>
      </trkpt>
      <trkpt lat="48.98795" lon="2.06047">
        <ele>111</ele>
        <time>2019-02-16T16:03:33Z</time>
      </trkpt>
      <trkpt lat="48.98785" lon="2.06057">
        <ele>111</ele>
        <time>2019-02-16T16:03:39Z</time>
      </trkpt>
      <trkpt lat="48.98786" lon="2.06074">
        <ele>111</ele>
        <time>2019-02-16T16:03:44Z</time>
      </trkpt>
      <trkpt lat="48.98786" lon="2.06089">
        <ele>110</ele>
        <time>2019-02-16T16:03:50Z</time>
      </trkpt>
      <trkpt lat="48.98785" lon="2.06103">
        <ele>110</ele>
        <time>2019-02-16T16:03:56Z</time>
      </trkpt>
      <trkpt lat="48.98786" lon="2.06118">
        <ele>110</ele>
        <time>2019-02-16T16:04:03Z</time>
      </trkpt>
      <trkpt lat="48.98788" lon="2.06133">
        <ele>109</ele>
        <time>2019-02-16T16:04:11Z</time>
      </trkpt>
      <trkpt lat="48.98788" lon="2.06146">
        <ele>108</ele>
        <time>2019-02-16T16:04:18Z</time>
      </trkpt>
      <trkpt lat="48.9878" lon="2.06155">
        <ele>108</ele>
        <time>2019-02-16T16:04:26Z</time>
      </trkpt>
      <trkpt lat="48.9877" lon="2.06154">
        <ele>107</ele>
        <time>2019-02-16T16:04:35Z</time>
      </trkpt>
      <trkpt lat="48.98762" lon="2.06149">
        <ele>107</ele>
        <time>2019-02-16T16:04:42Z</time>
      </trkpt>
      <trkpt lat="48.98753" lon="2.06145">
        <ele>106</ele>
        <time>2019-02-16T16:04:48Z</time>
      </trkpt>
      <trkpt lat="48.98744" lon="2.06141">
        <ele>105</ele>
        <time>2019-02-16T16:04:55Z</time>
      </trkpt>
      <trkpt lat="48.98734" lon="2.06135">
        <ele>105</ele>
        <time>2019-02-16T16:05:03Z</time>
      </trkpt>
      <trkpt lat="48.98724" lon="2.06134">
        <ele>104</ele>
        <time>2019-02-16T16:05:12Z</time>
      </trkpt>
      <trkpt lat="48.98715" lon="2.06134">
        <ele>103</ele>
        <time>2019-02-16T16:05:18Z</time>
      </trkpt>
      <trkpt lat="48.98706" lon="2.06132">
        <ele>102</ele>
        <time>2019-02-16T16:05:25Z</time>
      </trkpt>
      <trkpt lat="48.98696" lon="2.0613">
        <ele>101</ele>
        <time>2019-02-16T16:05:32Z</time>
      </trkpt>
      <trkpt lat="48.98687" lon="2.06131">
        <ele>100</ele>
        <time>2019-02-16T16:05:42Z</time>
      </trkpt>
      <trkpt lat="48.98678" lon="2.06125">
        <ele>99</ele>
        <time>2019-02-16T16:05:49Z</time>
      </trkpt>
      <trkpt lat="48.98668" lon="2.06121">
        <ele>98</ele>
        <time>2019-02-16T16:05:58Z</time>
      </trkpt>
      <trkpt lat="48.98658" lon="2.06124">
        <ele>97</ele>
        <time>2019-02-16T16:06:06Z</time>
      </trkpt>
      <trkpt lat="48.98653" lon="2.06138">
        <ele>96</ele>
        <time>2019-02-16T16:06:12Z</time>
      </trkpt>
      <trkpt lat="48.9865" lon="2.06153">
        <ele>96</ele>
        <time>2019-02-16T16:06:18Z</time>
      </trkpt>
      <trkpt lat="48.98643" lon="2.06165">
        <ele>95</ele>
        <time>2019-02-16T16:06:29Z</time>
      </trkpt>
      <trkpt lat="48.98636" lon="2.06175">
        <ele>94</ele>
        <time>2019-02-16T16:06:38Z</time>
      </trkpt>
      <trkpt lat="48.98624" lon="2.06174">
        <ele>93</ele>
        <time>2019-02-16T16:06:46Z</time>
      </trkpt>
      <trkpt lat="48.98615" lon="2.06174">
        <ele>92</ele>
        <time>2019-02-16T16:06:52Z</time>
      </trkpt>
      <trkpt lat="48.98605" lon="2.06171">
        <ele>92</ele>
        <time>2019-02-16T16:06:59Z</time>
      </trkpt>
      <trkpt lat="48.98595" lon="2.06173">
        <ele>91</ele>
        <time>2019-02-16T16:07:08Z</time>
      </trkpt>
      <trkpt lat="48.98585" lon="2.06171">
        <ele>90</ele>
        <time>2019-02-16T16:07:17Z</time>
      </trkpt>
      <trkpt lat="48.98576" lon="2.06169">
        <ele>90</ele>
        <time>2019-02-16T16:07:24Z</time>
      </trkpt>
      <trkpt lat="48.98566" lon="2.06169">
        <ele>89</ele>
        <time>2019-02-16T16:07:31Z</time>
      </trkpt>
      <trkpt lat="48.98556" lon="2.06168">
        <ele>89</ele>
        <time>2019-02-16T16:07:38Z</time>
      </trkpt>
      <trkpt lat="48.98547" lon="2.06169">
        <ele>88</ele>
        <time>2019-02-16T16:07:45Z</time>
      </trkpt>
      <trkpt lat="48.98538" lon="2.06168">
        <ele>88</ele>
        <time>2019-02-16T16:07:53Z</time>
      </trkpt>
      <trkpt lat="48.98528" lon="2.06172">
        <ele>87</ele>
        <time>2019-02-16T16:08:00Z</time>
      </trkpt>
      <trkpt lat="48.98519" lon="2.0617">
        <ele>87</ele>
        <time>2019-02-16T16:08:07Z</time>
      </trkpt>
      <trkpt lat="48.98509" lon="2.06169">
        <ele>87</ele>
        <time>2019-02-16T16:08:14Z</time>
      </trkpt>
      <trkpt lat="48.985" lon="2.06168">
        <ele>86</ele>
        <time>2019-02-16T16:08:20Z</time>
      </trkpt>
      <trkpt lat="48.98491" lon="2.06169">
        <ele>86</ele>
        <time>2019-02-16T16:08:27Z</time>
      </trkpt>
      <trkpt lat="48.98482" lon="2.06172">
        <ele>86</ele>
        <time>2019-02-16T16:08:35Z</time>
      </trkpt>
      <trkpt lat="48.98472" lon="2.06172">
        <ele>86</ele>
        <time>2019-02-16T16:08:43Z</time>
      </trkpt>
      <trkpt lat="48.98463" lon="2.0617">
        <ele>85</ele>
        <time>2019-02-16T16:08:50Z</time>
      </trkpt>
      <trkpt lat="48.98453" lon="2.06167">
        <ele>85</ele>
        <time>2019-02-16T16:08:57Z</time>
      </trkpt>
      <trkpt lat="48.98443" lon="2.06166">
        <ele>85</ele>
        <time>2019-02-16T16:09:04Z</time>
      </trkpt>
      <trkpt lat="48.98433" lon="2.06166">
        <ele>85</ele>
        <time>2019-02-16T16:09:11Z</time>
      </trkpt>
      <trkpt lat="48.98424" lon="2.06163">
        <ele>85</ele>
        <time>2019-02-16T16:09:18Z</time>
      </trkpt>
      <trkpt lat="48.98414" lon="2.06162">
        <ele>84</ele>
        <time>2019-02-16T16:09:25Z</time>
      </trkpt>
      <trkpt lat="48.98404" lon="2.06162">
        <ele>84</ele>
        <time>2019-02-16T16:09:33Z</time>
      </trkpt>
      <trkpt lat="48.98394" lon="2.06158">
        <ele>84</ele>
        <time>2019-02-16T16:09:40Z</time>
      </trkpt>
      <trkpt lat="48.98385" lon="2.06153">
        <ele>84</ele>
        <time>2019-02-16T16:09:49Z</time>
      </trkpt>
      <trkpt lat="48.98376" lon="2.0615">
        <ele>84</ele>
        <time>2019-02-16T16:09:56Z</time>
      </trkpt>
      <trkpt lat="48.98367" lon="2.06143">
        <ele>84</ele>
        <time>2019-02-16T16:10:03Z</time>
      </trkpt>
      <trkpt lat="48.98358" lon="2.06141">
        <ele>83</ele>
        <time>2019-02-16T16:10:17Z</time>
      </trkpt>
      <trkpt lat="48.9835" lon="2.06132">
        <ele>83</ele>
        <time>2019-02-16T16:10:25Z</time>
      </trkpt>
      <trkpt lat="48.9834" lon="2.06126">
        <ele>83</ele>
        <time>2019-02-16T16:10:34Z</time>
      </trkpt>
      <trkpt lat="48.98332" lon="2.06134">
        <ele>83</ele>
        <time>2019-02-16T16:10:46Z</time>
      </trkpt>
      <trkpt lat="48.98325" lon="2.06143">
        <ele>82</ele>
        <time>2019-02-16T16:10:53Z</time>
      </trkpt>
      <trkpt lat="48.9832" lon="2.06156">
        <ele>82</ele>
        <time>2019-02-16T16:11:02Z</time>
      </trkpt>
      <trkpt lat="48.98313" lon="2.06165">
        <ele>82</ele>
        <time>2019-02-16T16:11:10Z</time>
      </trkpt>
      <trkpt lat="48.98306" lon="2.06177">
        <ele>82</ele>
        <time>2019-02-16T16:11:18Z</time>
      </trkpt>
      <trkpt lat="48.98301" lon="2.0619">
        <ele>81</ele>
        <time>2019-02-16T16:11:26Z</time>
      </trkpt>
      <trkpt lat="48.98294" lon="2.062">
        <ele>81</ele>
        <time>2019-02-16T16:11:34Z</time>
      </trkpt>
      <trkpt lat="48.9829" lon="2.06214">
        <ele>81</ele>
        <time>2019-02-16T16:11:41Z</time>
      </trkpt>
      <trkpt lat="48.98281" lon="2.06219">
        <ele>81</ele>
        <time>2019-02-16T16:11:54Z</time>
      </trkpt>
      <trkpt lat="48.98277" lon="2.06232">
        <ele>80</ele>
        <time>2019-02-16T16:12:03Z</time>
      </trkpt>
      <trkpt lat="48.98269" lon="2.06222">
        <ele>80</ele>
        <time>2019-02-16T16:12:19Z</time>
      </trkpt>
      <trkpt lat="48.98261" lon="2.06217">
        <ele>79</ele>
        <time>2019-02-16T16:12:29Z</time>
      </trkpt>
      <trkpt lat="48.98252" lon="2.0621">
        <ele>79</ele>
        <time>2019-02-16T16:12:34Z</time>
      </trkpt>
      <trkpt lat="48.98245" lon="2.06201">
        <ele>79</ele>
        <time>2019-02-16T16:12:41Z</time>
      </trkpt>
      <trkpt lat="48.98236" lon="2.06192">
        <ele>79</ele>
        <time>2019-02-16T16:12:48Z</time>
      </trkpt>
      <trkpt lat="48.98227" lon="2.06185">
        <ele>78</ele>
        <time>2019-02-16T16:12:55Z</time>
      </trkpt>
      <trkpt lat="48.98218" lon="2.06178">
        <ele>78</ele>
        <time>2019-02-16T16:13:04Z</time>
      </trkpt>
      <trkpt lat="48.98209" lon="2.06173">
        <ele>77</ele>
        <time>2019-02-16T16:13:12Z</time>
      </trkpt>
      <trkpt lat="48.982" lon="2.06165">
        <ele>77</ele>
        <time>2019-02-16T16:13:20Z</time>
      </trkpt>
      <trkpt lat="48.98192" lon="2.06158">
        <ele>77</ele>
        <time>2019-02-16T16:13:26Z</time>
      </trkpt>
      <trkpt lat="48.98184" lon="2.06151">
        <ele>76</ele>
        <time>2019-02-16T16:13:34Z</time>
      </trkpt>
      <trkpt lat="48.98176" lon="2.06143">
        <ele>76</ele>
        <time>2019-02-16T16:13:43Z</time>
      </trkpt>
      <trkpt lat="48.98168" lon="2.06135">
        <ele>75</ele>
        <time>2019-02-16T16:13:52Z</time>
      </trkpt>
      <trkpt lat="48.9816" lon="2.06129">
        <ele>75</ele>
        <time>2019-02-16T16:14:00Z</time>
      </trkpt>
      <trkpt lat="48.98152" lon="2.06119">
        <ele>75</ele>
        <time>2019-02-16T16:14:11Z</time>
      </trkpt>
      <trkpt lat="48.98144" lon="2.0611">
        <ele>75</ele>
        <time>2019-02-16T16:14:19Z</time>
      </trkpt>
      <trkpt lat="48.98136" lon="2.06102">
        <ele>74</ele>
        <time>2019-02-16T16:14:25Z</time>
      </trkpt>
      <trkpt lat="48.98129" lon="2.06094">
        <ele>74</ele>
        <time>2019-02-16T16:14:33Z</time>
      </trkpt>
      <trkpt lat="48.98123" lon="2.06082">
        <ele>74</ele>
        <time>2019-02-16T16:14:41Z</time>
      </trkpt>
      <trkpt lat="48.98114" lon="2.06073">
        <ele>74</ele>
        <time>2019-02-16T16:14:48Z</time>
      </trkpt>
      <trkpt lat="48.98106" lon="2.06066">
        <ele>74</ele>
        <time>2019-02-16T16:14:54Z</time>
      </trkpt>
      <trkpt lat="48.98097" lon="2.0606">
        <ele>74</ele>
        <time>2019-02-16T16:15:03Z</time>
      </trkpt>
      <trkpt lat="48.98088" lon="2.06054">
        <ele>73</ele>
        <time>2019-02-16T16:15:09Z</time>
      </trkpt>
      <trkpt lat="48.9808" lon="2.06048">
        <ele>73</ele>
        <time>2019-02-16T16:15:18Z</time>
      </trkpt>
      <trkpt lat="48.9807" lon="2.06042">
        <ele>73</ele>
        <time>2019-02-16T16:15:27Z</time>
      </trkpt>
      <trkpt lat="48.98062" lon="2.06035">
        <ele>73</ele>
        <time>2019-02-16T16:15:38Z</time>
      </trkpt>
      <trkpt lat="48.98052" lon="2.06028">
        <ele>72</ele>
        <time>2019-02-16T16:15:45Z</time>
      </trkpt>
      <trkpt lat="48.98047" lon="2.06016">
        <ele>72</ele>
        <time>2019-02-16T16:15:59Z</time>
      </trkpt>
      <trkpt lat="48.98051" lon="2.06002">
        <ele>72</ele>
        <time>2019-02-16T16:16:06Z</time>
      </trkpt>
    </trkseg>
  </trk>
</gpx>